<?xml version='1.0' encoding='UTF-8'?>
<gpx version="1.1" creator="https://www.komoot.de" xmlns="http://www.topografix.com/GPX/1/1" xmlns:xsi="http://www.w3.org/2001/XMLSchema-instance" xsi:schemaLocation="http://www.topografix.com/GPX/1/1 http://www.topografix.com/GPX/1/1/gpx.xsd">
  <metadata>
    <name>GVA-MAR - Day 4</name>
    <author>
      <link href="https://www.komoot.de">
        <text>komoot</text>
        <type>text/html</type>
      </link>
    </author>
  </metadata>
  <trk>
    <name>GVA-MAR - Day 4</name>
    <trkseg>
      <trkpt lat="45.272277" lon="5.628841">
        <ele>196.563841</ele>
        <time>2017-05-29T19:07:06.566Z</time>
      </trkpt>
      <trkpt lat="45.272956" lon="5.628540">
        <ele>196.563841</ele>
        <time>2017-05-29T19:07:30.769Z</time>
      </trkpt>
      <trkpt lat="45.273014" lon="5.628511">
        <ele>196.563841</ele>
        <time>2017-05-29T19:07:32.838Z</time>
      </trkpt>
      <trkpt lat="45.272981" lon="5.628285">
        <ele>196.592000</ele>
        <time>2017-05-29T19:07:37.306Z</time>
      </trkpt>
      <trkpt lat="45.272832" lon="5.627827">
        <ele>196.870764</ele>
        <time>2017-05-29T19:07:46.771Z</time>
      </trkpt>
      <trkpt lat="45.272813" lon="5.627556">
        <ele>197.021226</ele>
        <time>2017-05-29T19:07:51.727Z</time>
      </trkpt>
      <trkpt lat="45.272860" lon="5.627424">
        <ele>197.102956</ele>
        <time>2017-05-29T19:07:54.576Z</time>
      </trkpt>
      <trkpt lat="45.272926" lon="5.627270">
        <ele>197.202572</ele>
        <time>2017-05-29T19:07:57.486Z</time>
      </trkpt>
      <trkpt lat="45.273005" lon="5.627193">
        <ele>197.277780</ele>
        <time>2017-05-29T19:08:00.123Z</time>
      </trkpt>
      <trkpt lat="45.273049" lon="5.627169">
        <ele>197.314780</ele>
        <time>2017-05-29T19:08:01.182Z</time>
      </trkpt>
      <trkpt lat="45.273089" lon="5.627134">
        <ele>197.351659</ele>
        <time>2017-05-29T19:08:02.425Z</time>
      </trkpt>
      <trkpt lat="45.273122" lon="5.627087">
        <ele>197.388339</ele>
        <time>2017-05-29T19:08:03.722Z</time>
      </trkpt>
      <trkpt lat="45.273147" lon="5.627031">
        <ele>197.424978</ele>
        <time>2017-05-29T19:08:04.762Z</time>
      </trkpt>
      <trkpt lat="45.273172" lon="5.626904">
        <ele>197.497835</ele>
        <time>2017-05-29T19:08:06.972Z</time>
      </trkpt>
      <trkpt lat="45.273157" lon="5.626773">
        <ele>197.571160</ele>
        <time>2017-05-29T19:08:09.501Z</time>
      </trkpt>
      <trkpt lat="45.273136" lon="5.626714">
        <ele>197.607688</ele>
        <time>2017-05-29T19:08:10.591Z</time>
      </trkpt>
      <trkpt lat="45.273107" lon="5.626663">
        <ele>197.643913</ele>
        <time>2017-05-29T19:08:11.908Z</time>
      </trkpt>
      <trkpt lat="45.273029" lon="5.626591">
        <ele>197.716934</ele>
        <time>2017-05-29T19:08:14.161Z</time>
      </trkpt>
      <trkpt lat="45.272937" lon="5.626570">
        <ele>197.790086</ele>
        <time>2017-05-29T19:08:16.453Z</time>
      </trkpt>
      <trkpt lat="45.272891" lon="5.626581">
        <ele>197.826706</ele>
        <time>2017-05-29T19:08:17.801Z</time>
      </trkpt>
      <trkpt lat="45.272789" lon="5.626561">
        <ele>197.907542</ele>
        <time>2017-05-29T19:08:20.225Z</time>
      </trkpt>
      <trkpt lat="45.272709" lon="5.626504">
        <ele>197.975399</ele>
        <time>2017-05-29T19:08:22.367Z</time>
      </trkpt>
      <trkpt lat="45.272663" lon="5.626434">
        <ele>197.961673</ele>
        <time>2017-05-29T19:08:23.787Z</time>
      </trkpt>
      <trkpt lat="45.272628" lon="5.626327">
        <ele>197.944761</ele>
        <time>2017-05-29T19:08:26.000Z</time>
      </trkpt>
      <trkpt lat="45.272450" lon="5.625592">
        <ele>197.833355</ele>
        <time>2017-05-29T19:08:38.423Z</time>
      </trkpt>
      <trkpt lat="45.272435" lon="5.625509">
        <ele>197.821073</ele>
        <time>2017-05-29T19:08:39.637Z</time>
      </trkpt>
      <trkpt lat="45.272242" lon="5.624790">
        <ele>197.710782</ele>
        <time>2017-05-29T19:08:50.799Z</time>
      </trkpt>
      <trkpt lat="45.272232" lon="5.624546">
        <ele>197.675751</ele>
        <time>2017-05-29T19:08:54.292Z</time>
      </trkpt>
      <trkpt lat="45.272242" lon="5.624323">
        <ele>197.643725</ele>
        <time>2017-05-29T19:08:57.448Z</time>
      </trkpt>
      <trkpt lat="45.272256" lon="5.624238">
        <ele>197.631213</ele>
        <time>2017-05-29T19:08:58.711Z</time>
      </trkpt>
      <trkpt lat="45.272301" lon="5.624162">
        <ele>197.616978</ele>
        <time>2017-05-29T19:09:00.125Z</time>
      </trkpt>
      <trkpt lat="45.272325" lon="5.624069">
        <ele>197.594711</ele>
        <time>2017-05-29T19:09:01.547Z</time>
      </trkpt>
      <trkpt lat="45.272304" lon="5.623875">
        <ele>197.533189</ele>
        <time>2017-05-29T19:09:04.353Z</time>
      </trkpt>
      <trkpt lat="45.272171" lon="5.623729">
        <ele>197.458334</ele>
        <time>2017-05-29T19:09:07.788Z</time>
      </trkpt>
      <trkpt lat="45.272085" lon="5.623726">
        <ele>197.420019</ele>
        <time>2017-05-29T19:09:09.563Z</time>
      </trkpt>
      <trkpt lat="45.271804" lon="5.622524">
        <ele>197.023019</ele>
        <time>2017-05-29T19:09:34.227Z</time>
      </trkpt>
      <trkpt lat="45.272014" lon="5.622363">
        <ele>196.916742</ele>
        <time>2017-05-29T19:09:39.202Z</time>
      </trkpt>
      <trkpt lat="45.272485" lon="5.622072">
        <ele>196.871122</ele>
        <time>2017-05-29T19:09:50.021Z</time>
      </trkpt>
      <trkpt lat="45.272726" lon="5.621939">
        <ele>196.930988</ele>
        <time>2017-05-29T19:09:55.570Z</time>
      </trkpt>
      <trkpt lat="45.273558" lon="5.621587">
        <ele>197.132001</ele>
        <time>2017-05-29T19:10:15.521Z</time>
      </trkpt>
      <trkpt lat="45.274652" lon="5.621359">
        <ele>197.939515</ele>
        <time>2017-05-29T19:10:44.300Z</time>
      </trkpt>
      <trkpt lat="45.275780" lon="5.621425">
        <ele>199.078473</ele>
        <time>2017-05-29T19:11:14.479Z</time>
      </trkpt>
      <trkpt lat="45.276323" lon="5.621220">
        <ele>199.541762</ele>
        <time>2017-05-29T19:11:29.387Z</time>
      </trkpt>
      <trkpt lat="45.277923" lon="5.620822">
        <ele>200.606320</ele>
        <time>2017-05-29T19:12:10.106Z</time>
      </trkpt>
      <trkpt lat="45.278548" lon="5.620708">
        <ele>200.715547</ele>
        <time>2017-05-29T19:12:24.701Z</time>
      </trkpt>
      <trkpt lat="45.279135" lon="5.620705">
        <ele>200.817299</ele>
        <time>2017-05-29T19:12:37.778Z</time>
      </trkpt>
      <trkpt lat="45.281106" lon="5.620539">
        <ele>199.842247</ele>
        <time>2017-05-29T19:13:18.082Z</time>
      </trkpt>
      <trkpt lat="45.281973" lon="5.620370">
        <ele>199.123966</ele>
        <time>2017-05-29T19:13:34.948Z</time>
      </trkpt>
      <trkpt lat="45.282358" lon="5.620253">
        <ele>198.800820</ele>
        <time>2017-05-29T19:13:42.599Z</time>
      </trkpt>
      <trkpt lat="45.283149" lon="5.620132">
        <ele>198.322929</ele>
        <time>2017-05-29T19:13:58.334Z</time>
      </trkpt>
      <trkpt lat="45.285697" lon="5.619601">
        <ele>198.236289</ele>
        <time>2017-05-29T19:14:55.228Z</time>
      </trkpt>
      <trkpt lat="45.287201" lon="5.619182">
        <ele>198.835049</ele>
        <time>2017-05-29T19:15:32.603Z</time>
      </trkpt>
      <trkpt lat="45.287919" lon="5.619057">
        <ele>199.243201</ele>
        <time>2017-05-29T19:15:50.692Z</time>
      </trkpt>
      <trkpt lat="45.290268" lon="5.618494">
        <ele>199.989510</ele>
        <time>2017-05-29T19:16:47.643Z</time>
      </trkpt>
      <trkpt lat="45.292209" lon="5.618087">
        <ele>199.267949</ele>
        <time>2017-05-29T19:17:27.693Z</time>
      </trkpt>
      <trkpt lat="45.293146" lon="5.617789">
        <ele>198.793191</ele>
        <time>2017-05-29T19:17:47.144Z</time>
      </trkpt>
      <trkpt lat="45.293876" lon="5.617582">
        <ele>198.599060</ele>
        <time>2017-05-29T19:18:02.901Z</time>
      </trkpt>
      <trkpt lat="45.293983" lon="5.617552">
        <ele>198.596379</ele>
        <time>2017-05-29T19:18:05.318Z</time>
      </trkpt>
      <trkpt lat="45.295763" lon="5.617216">
        <ele>198.515044</ele>
        <time>2017-05-29T19:18:45.853Z</time>
      </trkpt>
      <trkpt lat="45.295974" lon="5.617147">
        <ele>198.492813</ele>
        <time>2017-05-29T19:18:50.771Z</time>
      </trkpt>
      <trkpt lat="45.296231" lon="5.616995">
        <ele>198.464232</ele>
        <time>2017-05-29T19:18:57.018Z</time>
      </trkpt>
      <trkpt lat="45.297095" lon="5.616308">
        <ele>198.226607</ele>
        <time>2017-05-29T19:19:18.190Z</time>
      </trkpt>
      <trkpt lat="45.297442" lon="5.616092">
        <ele>197.870549</ele>
        <time>2017-05-29T19:19:25.916Z</time>
      </trkpt>
      <trkpt lat="45.299539" lon="5.613778">
        <ele>194.843457</ele>
        <time>2017-05-29T19:20:16.076Z</time>
      </trkpt>
      <trkpt lat="45.300004" lon="5.612932">
        <ele>193.846539</ele>
        <time>2017-05-29T19:20:29.746Z</time>
      </trkpt>
      <trkpt lat="45.300421" lon="5.612006">
        <ele>192.826153</ele>
        <time>2017-05-29T19:20:43.865Z</time>
      </trkpt>
      <trkpt lat="45.301265" lon="5.609994">
        <ele>191.455192</ele>
        <time>2017-05-29T19:21:16.140Z</time>
      </trkpt>
      <trkpt lat="45.302469" lon="5.606838">
        <ele>190.952786</ele>
        <time>2017-05-29T19:22:12.217Z</time>
      </trkpt>
      <trkpt lat="45.302639" lon="5.606210">
        <ele>190.890497</ele>
        <time>2017-05-29T19:22:22.348Z</time>
      </trkpt>
      <trkpt lat="45.302826" lon="5.604838">
        <ele>190.742072</ele>
        <time>2017-05-29T19:22:43.287Z</time>
      </trkpt>
      <trkpt lat="45.302979" lon="5.604026">
        <ele>190.711040</ele>
        <time>2017-05-29T19:22:56.181Z</time>
      </trkpt>
      <trkpt lat="45.303114" lon="5.602497">
        <ele>190.959556</ele>
        <time>2017-05-29T19:23:22.465Z</time>
      </trkpt>
      <trkpt lat="45.303154" lon="5.600588">
        <ele>190.892350</ele>
        <time>2017-05-29T19:23:52.631Z</time>
      </trkpt>
      <trkpt lat="45.303171" lon="5.599869">
        <ele>190.765495</ele>
        <time>2017-05-29T19:24:03.447Z</time>
      </trkpt>
      <trkpt lat="45.303191" lon="5.599603">
        <ele>190.718323</ele>
        <time>2017-05-29T19:24:07.399Z</time>
      </trkpt>
      <trkpt lat="45.303229" lon="5.599201">
        <ele>190.646800</ele>
        <time>2017-05-29T19:24:13.165Z</time>
      </trkpt>
      <trkpt lat="45.303280" lon="5.599084">
        <ele>190.611170</ele>
        <time>2017-05-29T19:24:15.099Z</time>
      </trkpt>
      <trkpt lat="45.303292" lon="5.598324">
        <ele>190.374735</ele>
        <time>2017-05-29T19:24:25.490Z</time>
      </trkpt>
      <trkpt lat="45.303295" lon="5.597742">
        <ele>190.193717</ele>
        <time>2017-05-29T19:24:33.648Z</time>
      </trkpt>
      <trkpt lat="45.303243" lon="5.597141">
        <ele>190.005385</ele>
        <time>2017-05-29T19:24:42.810Z</time>
      </trkpt>
      <trkpt lat="45.303140" lon="5.595928">
        <ele>189.964145</ele>
        <time>2017-05-29T19:25:02.310Z</time>
      </trkpt>
      <trkpt lat="45.303146" lon="5.593536">
        <ele>190.295543</ele>
        <time>2017-05-29T19:25:42.176Z</time>
      </trkpt>
      <trkpt lat="45.302978" lon="5.592279">
        <ele>190.308308</ele>
        <time>2017-05-29T19:26:02.681Z</time>
      </trkpt>
      <trkpt lat="45.302600" lon="5.590606">
        <ele>189.946230</ele>
        <time>2017-05-29T19:26:28.510Z</time>
      </trkpt>
      <trkpt lat="45.301995" lon="5.589001">
        <ele>189.336363</ele>
        <time>2017-05-29T19:26:54.343Z</time>
      </trkpt>
      <trkpt lat="45.301515" lon="5.588023">
        <ele>189.142607</ele>
        <time>2017-05-29T19:27:11.899Z</time>
      </trkpt>
      <trkpt lat="45.301093" lon="5.587323">
        <ele>188.992819</ele>
        <time>2017-05-29T19:27:26.291Z</time>
      </trkpt>
      <trkpt lat="45.299770" lon="5.585423">
        <ele>189.302638</ele>
        <time>2017-05-29T19:28:10.158Z</time>
      </trkpt>
      <trkpt lat="45.298914" lon="5.584109">
        <ele>189.069114</ele>
        <time>2017-05-29T19:28:37.804Z</time>
      </trkpt>
      <trkpt lat="45.297432" lon="5.581942">
        <ele>188.146056</ele>
        <time>2017-05-29T19:29:21.310Z</time>
      </trkpt>
      <trkpt lat="45.296953" lon="5.580984">
        <ele>187.865285</ele>
        <time>2017-05-29T19:29:38.294Z</time>
      </trkpt>
      <trkpt lat="45.296655" lon="5.579931">
        <ele>187.656593</ele>
        <time>2017-05-29T19:29:55.260Z</time>
      </trkpt>
      <trkpt lat="45.296402" lon="5.578771">
        <ele>187.684957</ele>
        <time>2017-05-29T19:30:14.491Z</time>
      </trkpt>
      <trkpt lat="45.296397" lon="5.577131">
        <ele>188.053885</ele>
        <time>2017-05-29T19:30:42.155Z</time>
      </trkpt>
      <trkpt lat="45.296484" lon="5.576227">
        <ele>188.251035</ele>
        <time>2017-05-29T19:30:57.827Z</time>
      </trkpt>
      <trkpt lat="45.298135" lon="5.570196">
        <ele>189.430850</ele>
        <time>2017-05-29T19:32:44.226Z</time>
      </trkpt>
      <trkpt lat="45.298743" lon="5.567743">
        <ele>189.312646</ele>
        <time>2017-05-29T19:33:24.109Z</time>
      </trkpt>
      <trkpt lat="45.298958" lon="5.566340">
        <ele>189.086657</ele>
        <time>2017-05-29T19:33:45.901Z</time>
      </trkpt>
      <trkpt lat="45.298906" lon="5.565476">
        <ele>188.915752</ele>
        <time>2017-05-29T19:33:58.862Z</time>
      </trkpt>
      <trkpt lat="45.298762" lon="5.564733">
        <ele>188.763861</ele>
        <time>2017-05-29T19:34:10.258Z</time>
      </trkpt>
      <trkpt lat="45.298536" lon="5.563823">
        <ele>188.546747</ele>
        <time>2017-05-29T19:34:24.442Z</time>
      </trkpt>
      <trkpt lat="45.298071" lon="5.562844">
        <ele>188.280011</ele>
        <time>2017-05-29T19:34:41.864Z</time>
      </trkpt>
      <trkpt lat="45.296981" lon="5.561356">
        <ele>188.089613</ele>
        <time>2017-05-29T19:35:14.798Z</time>
      </trkpt>
      <trkpt lat="45.294984" lon="5.558869">
        <ele>188.108510</ele>
        <time>2017-05-29T19:36:14.413Z</time>
      </trkpt>
      <trkpt lat="45.294538" lon="5.557987">
        <ele>188.082526</ele>
        <time>2017-05-29T19:36:31.339Z</time>
      </trkpt>
      <trkpt lat="45.294174" lon="5.557039">
        <ele>188.056691</ele>
        <time>2017-05-29T19:36:48.079Z</time>
      </trkpt>
      <trkpt lat="45.293905" lon="5.556112">
        <ele>187.989474</ele>
        <time>2017-05-29T19:37:03.524Z</time>
      </trkpt>
      <trkpt lat="45.293789" lon="5.555413">
        <ele>187.940692</ele>
        <time>2017-05-29T19:37:14.593Z</time>
      </trkpt>
      <trkpt lat="45.293745" lon="5.554790">
        <ele>187.898164</ele>
        <time>2017-05-29T19:37:24.254Z</time>
      </trkpt>
      <trkpt lat="45.293727" lon="5.553578">
        <ele>187.818009</ele>
        <time>2017-05-29T19:37:42.923Z</time>
      </trkpt>
      <trkpt lat="45.293932" lon="5.550229">
        <ele>187.616888</ele>
        <time>2017-05-29T19:38:34.857Z</time>
      </trkpt>
      <trkpt lat="45.293481" lon="5.545120">
        <ele>187.390375</ele>
        <time>2017-05-29T19:39:54.836Z</time>
      </trkpt>
      <trkpt lat="45.293238" lon="5.543677">
        <ele>187.367470</ele>
        <time>2017-05-29T19:40:17.770Z</time>
      </trkpt>
      <trkpt lat="45.293043" lon="5.542197">
        <ele>187.387064</ele>
        <time>2017-05-29T19:40:41.450Z</time>
      </trkpt>
      <trkpt lat="45.292225" lon="5.537408">
        <ele>187.876471</ele>
        <time>2017-05-29T19:42:01.405Z</time>
      </trkpt>
      <trkpt lat="45.291366" lon="5.533117">
        <ele>187.626672</ele>
        <time>2017-05-29T19:43:09.760Z</time>
      </trkpt>
      <trkpt lat="45.290810" lon="5.531504">
        <ele>187.560857</ele>
        <time>2017-05-29T19:43:37.930Z</time>
      </trkpt>
      <trkpt lat="45.289633" lon="5.529353">
        <ele>187.290581</ele>
        <time>2017-05-29T19:44:20.570Z</time>
      </trkpt>
      <trkpt lat="45.289398" lon="5.528977">
        <ele>187.136753</ele>
        <time>2017-05-29T19:44:27.903Z</time>
      </trkpt>
      <trkpt lat="45.289254" lon="5.528747">
        <ele>187.042584</ele>
        <time>2017-05-29T19:44:32.211Z</time>
      </trkpt>
      <trkpt lat="45.287550" lon="5.527624">
        <ele>186.112446</ele>
        <time>2017-05-29T19:45:09.672Z</time>
      </trkpt>
      <trkpt lat="45.286733" lon="5.526873">
        <ele>185.853425</ele>
        <time>2017-05-29T19:45:30.741Z</time>
      </trkpt>
      <trkpt lat="45.286588" lon="5.526691">
        <ele>185.872619</ele>
        <time>2017-05-29T19:45:35.086Z</time>
      </trkpt>
      <trkpt lat="45.286529" lon="5.526652">
        <ele>185.879075</ele>
        <time>2017-05-29T19:45:36.625Z</time>
      </trkpt>
      <trkpt lat="45.286416" lon="5.526584">
        <ele>185.891251</ele>
        <time>2017-05-29T19:45:39.375Z</time>
      </trkpt>
      <trkpt lat="45.286335" lon="5.526581">
        <ele>185.899290</ele>
        <time>2017-05-29T19:45:41.212Z</time>
      </trkpt>
      <trkpt lat="45.286208" lon="5.526724">
        <ele>185.915366</ele>
        <time>2017-05-29T19:45:45.060Z</time>
      </trkpt>
      <trkpt lat="45.286062" lon="5.526716">
        <ele>185.929863</ele>
        <time>2017-05-29T19:45:48.424Z</time>
      </trkpt>
      <trkpt lat="45.284737" lon="5.526034">
        <ele>186.051646</ele>
        <time>2017-05-29T19:46:21.050Z</time>
      </trkpt>
      <trkpt lat="45.281307" lon="5.524943">
        <ele>185.860517</ele>
        <time>2017-05-29T19:47:38.573Z</time>
      </trkpt>
      <trkpt lat="45.277109" lon="5.523428">
        <ele>184.853729</ele>
        <time>2017-05-29T19:49:09.910Z</time>
      </trkpt>
      <trkpt lat="45.275191" lon="5.522635">
        <ele>185.215618</ele>
        <time>2017-05-29T19:49:56.686Z</time>
      </trkpt>
      <trkpt lat="45.274288" lon="5.522324">
        <ele>185.364814</ele>
        <time>2017-05-29T19:50:18.221Z</time>
      </trkpt>
      <trkpt lat="45.273355" lon="5.522095">
        <ele>185.497317</ele>
        <time>2017-05-29T19:50:39.571Z</time>
      </trkpt>
      <trkpt lat="45.270612" lon="5.521238">
        <ele>185.465223</ele>
        <time>2017-05-29T19:51:41.959Z</time>
      </trkpt>
      <trkpt lat="45.267033" lon="5.520262">
        <ele>185.173897</ele>
        <time>2017-05-29T19:53:01.507Z</time>
      </trkpt>
      <trkpt lat="45.266608" lon="5.520024">
        <ele>185.147117</ele>
        <time>2017-05-29T19:53:11.528Z</time>
      </trkpt>
      <trkpt lat="45.263532" lon="5.517786">
        <ele>185.292097</ele>
        <time>2017-05-29T19:54:29.097Z</time>
      </trkpt>
      <trkpt lat="45.261806" lon="5.516615">
        <ele>185.375886</ele>
        <time>2017-05-29T19:55:12.432Z</time>
      </trkpt>
      <trkpt lat="45.259955" lon="5.514874">
        <ele>185.160933</ele>
        <time>2017-05-29T19:56:00.520Z</time>
      </trkpt>
      <trkpt lat="45.253385" lon="5.508342">
        <ele>185.337939</ele>
        <time>2017-05-29T19:58:59.133Z</time>
      </trkpt>
      <trkpt lat="45.252121" lon="5.507209">
        <ele>185.718527</ele>
        <time>2017-05-29T19:59:34.661Z</time>
      </trkpt>
      <trkpt lat="45.251101" lon="5.506384">
        <ele>186.123267</ele>
        <time>2017-05-29T20:00:02.775Z</time>
      </trkpt>
      <trkpt lat="45.249487" lon="5.505209">
        <ele>186.015719</ele>
        <time>2017-05-29T20:00:42.971Z</time>
      </trkpt>
      <trkpt lat="45.247705" lon="5.504079">
        <ele>184.733289</ele>
        <time>2017-05-29T20:01:21.747Z</time>
      </trkpt>
      <trkpt lat="45.245422" lon="5.502901">
        <ele>183.144470</ele>
        <time>2017-05-29T20:02:10.003Z</time>
      </trkpt>
      <trkpt lat="45.244844" lon="5.502495">
        <ele>182.872426</ele>
        <time>2017-05-29T20:02:23.534Z</time>
      </trkpt>
      <trkpt lat="45.242604" lon="5.500599">
        <ele>182.629712</ele>
        <time>2017-05-29T20:03:21.463Z</time>
      </trkpt>
      <trkpt lat="45.241396" lon="5.499384">
        <ele>182.521818</ele>
        <time>2017-05-29T20:03:54.163Z</time>
      </trkpt>
      <trkpt lat="45.240994" lon="5.498936">
        <ele>182.327791</ele>
        <time>2017-05-29T20:04:05.027Z</time>
      </trkpt>
      <trkpt lat="45.240214" lon="5.498086">
        <ele>181.954474</ele>
        <time>2017-05-29T20:04:25.383Z</time>
      </trkpt>
      <trkpt lat="45.239814" lon="5.497523">
        <ele>181.728237</ele>
        <time>2017-05-29T20:04:36.893Z</time>
      </trkpt>
      <trkpt lat="45.239417" lon="5.496863">
        <ele>181.471984</ele>
        <time>2017-05-29T20:04:49.387Z</time>
      </trkpt>
      <trkpt lat="45.236190" lon="5.490759">
        <ele>179.844186</ele>
        <time>2017-05-29T20:06:43.311Z</time>
      </trkpt>
      <trkpt lat="45.235470" lon="5.489534">
        <ele>179.655761</ele>
        <time>2017-05-29T20:07:07.772Z</time>
      </trkpt>
      <trkpt lat="45.234720" lon="5.488304">
        <ele>179.640560</ele>
        <time>2017-05-29T20:07:33.224Z</time>
      </trkpt>
      <trkpt lat="45.233773" lon="5.486873">
        <ele>179.709859</ele>
        <time>2017-05-29T20:08:04.394Z</time>
      </trkpt>
      <trkpt lat="45.233486" lon="5.486478">
        <ele>179.741100</ele>
        <time>2017-05-29T20:08:13.505Z</time>
      </trkpt>
      <trkpt lat="45.232979" lon="5.486002">
        <ele>179.773973</ele>
        <time>2017-05-29T20:08:27.262Z</time>
      </trkpt>
      <trkpt lat="45.232345" lon="5.485574">
        <ele>179.767467</ele>
        <time>2017-05-29T20:08:42.914Z</time>
      </trkpt>
      <trkpt lat="45.231422" lon="5.485130">
        <ele>179.758850</ele>
        <time>2017-05-29T20:09:04.395Z</time>
      </trkpt>
      <trkpt lat="45.230911" lon="5.484976">
        <ele>179.758778</ele>
        <time>2017-05-29T20:09:15.810Z</time>
      </trkpt>
      <trkpt lat="45.230711" lon="5.484973">
        <ele>179.758750</ele>
        <time>2017-05-29T20:09:20.145Z</time>
      </trkpt>
      <trkpt lat="45.230076" lon="5.484850">
        <ele>179.758662</ele>
        <time>2017-05-29T20:09:34.312Z</time>
      </trkpt>
      <trkpt lat="45.229379" lon="5.484842">
        <ele>179.869109</ele>
        <time>2017-05-29T20:09:50.174Z</time>
      </trkpt>
      <trkpt lat="45.227913" lon="5.485061">
        <ele>180.399794</ele>
        <time>2017-05-29T20:10:25.459Z</time>
      </trkpt>
      <trkpt lat="45.226914" lon="5.485294">
        <ele>180.679077</ele>
        <time>2017-05-29T20:10:49.871Z</time>
      </trkpt>
      <trkpt lat="45.225256" lon="5.485750">
        <ele>180.749283</ele>
        <time>2017-05-29T20:11:27.718Z</time>
      </trkpt>
      <trkpt lat="45.224444" lon="5.485769">
        <ele>180.611303</ele>
        <time>2017-05-29T20:11:44.714Z</time>
      </trkpt>
      <trkpt lat="45.223826" lon="5.485702">
        <ele>180.447568</ele>
        <time>2017-05-29T20:11:57.582Z</time>
      </trkpt>
      <trkpt lat="45.222918" lon="5.485340">
        <ele>180.180992</ele>
        <time>2017-05-29T20:12:17.419Z</time>
      </trkpt>
      <trkpt lat="45.222712" lon="5.485228">
        <ele>180.118642</ele>
        <time>2017-05-29T20:12:22.214Z</time>
      </trkpt>
      <trkpt lat="45.222548" lon="5.485046">
        <ele>180.096706</ele>
        <time>2017-05-29T20:12:26.814Z</time>
      </trkpt>
      <trkpt lat="45.222177" lon="5.484542">
        <ele>180.158782</ele>
        <time>2017-05-29T20:12:38.390Z</time>
      </trkpt>
      <trkpt lat="45.221471" lon="5.483467">
        <ele>180.283939</ele>
        <time>2017-05-29T20:13:02.291Z</time>
      </trkpt>
      <trkpt lat="45.220975" lon="5.482644">
        <ele>180.342563</ele>
        <time>2017-05-29T20:13:19.911Z</time>
      </trkpt>
      <trkpt lat="45.220332" lon="5.481427">
        <ele>180.412529</ele>
        <time>2017-05-29T20:13:44.009Z</time>
      </trkpt>
      <trkpt lat="45.219768" lon="5.480275">
        <ele>180.178065</ele>
        <time>2017-05-29T20:14:05.285Z</time>
      </trkpt>
      <trkpt lat="45.219437" lon="5.479563">
        <ele>180.009745</ele>
        <time>2017-05-29T20:14:17.848Z</time>
      </trkpt>
      <trkpt lat="45.218620" lon="5.478515">
        <ele>179.601046</ele>
        <time>2017-05-29T20:14:40.764Z</time>
      </trkpt>
      <trkpt lat="45.217930" lon="5.477693">
        <ele>179.231286</ele>
        <time>2017-05-29T20:14:59.402Z</time>
      </trkpt>
      <trkpt lat="45.217481" lon="5.477267">
        <ele>179.097341</ele>
        <time>2017-05-29T20:15:10.778Z</time>
      </trkpt>
      <trkpt lat="45.214884" lon="5.475073">
        <ele>178.718595</ele>
        <time>2017-05-29T20:16:16.482Z</time>
      </trkpt>
      <trkpt lat="45.214149" lon="5.474362">
        <ele>179.090219</ele>
        <time>2017-05-29T20:16:37.151Z</time>
      </trkpt>
      <trkpt lat="45.213516" lon="5.473688">
        <ele>179.507121</ele>
        <time>2017-05-29T20:16:56.744Z</time>
      </trkpt>
      <trkpt lat="45.212360" lon="5.472068">
        <ele>180.927848</ele>
        <time>2017-05-29T20:17:39.579Z</time>
      </trkpt>
      <trkpt lat="45.211959" lon="5.471403">
        <ele>181.425398</ele>
        <time>2017-05-29T20:17:55.607Z</time>
      </trkpt>
      <trkpt lat="45.211374" lon="5.470545">
        <ele>181.767487</ele>
        <time>2017-05-29T20:18:16.365Z</time>
      </trkpt>
      <trkpt lat="45.210054" lon="5.468382">
        <ele>182.194555</ele>
        <time>2017-05-29T20:19:01.469Z</time>
      </trkpt>
      <trkpt lat="45.209077" lon="5.466855">
        <ele>183.004948</ele>
        <time>2017-05-29T20:19:34.984Z</time>
      </trkpt>
      <trkpt lat="45.208807" lon="5.466222">
        <ele>183.459309</ele>
        <time>2017-05-29T20:19:49.264Z</time>
      </trkpt>
      <trkpt lat="45.208715" lon="5.465987">
        <ele>183.624387</ele>
        <time>2017-05-29T20:19:54.397Z</time>
      </trkpt>
      <trkpt lat="45.208852" lon="5.465742">
        <ele>183.830793</ele>
        <time>2017-05-29T20:20:01.396Z</time>
      </trkpt>
      <trkpt lat="45.208953" lon="5.465438">
        <ele>184.590722</ele>
        <time>2017-05-29T20:20:07.954Z</time>
      </trkpt>
      <trkpt lat="45.208972" lon="5.465050">
        <ele>185.470097</ele>
        <time>2017-05-29T20:20:15.315Z</time>
      </trkpt>
      <trkpt lat="45.208888" lon="5.464723">
        <ele>186.257048</ele>
        <time>2017-05-29T20:20:24.387Z</time>
      </trkpt>
      <trkpt lat="45.208651" lon="5.464343">
        <ele>187.404511</ele>
        <time>2017-05-29T20:20:37.154Z</time>
      </trkpt>
      <trkpt lat="45.208385" lon="5.464147">
        <ele>188.366338</ele>
        <time>2017-05-29T20:20:48.940Z</time>
      </trkpt>
      <trkpt lat="45.208288" lon="5.464075">
        <ele>188.717629</ele>
        <time>2017-05-29T20:20:52.660Z</time>
      </trkpt>
      <trkpt lat="45.208001" lon="5.463886">
        <ele>189.886629</ele>
        <time>2017-05-29T20:21:05.291Z</time>
      </trkpt>
      <trkpt lat="45.207900" lon="5.463798">
        <ele>190.657503</ele>
        <time>2017-05-29T20:21:09.400Z</time>
      </trkpt>
      <trkpt lat="45.207761" lon="5.463573">
        <ele>192.028888</ele>
        <time>2017-05-29T20:21:18.916Z</time>
      </trkpt>
      <trkpt lat="45.207648" lon="5.463199">
        <ele>193.893806</ele>
        <time>2017-05-29T20:21:32.041Z</time>
      </trkpt>
      <trkpt lat="45.207622" lon="5.462791">
        <ele>195.771215</ele>
        <time>2017-05-29T20:21:46.382Z</time>
      </trkpt>
      <trkpt lat="45.207711" lon="5.462362">
        <ele>197.820692</ele>
        <time>2017-05-29T20:22:02.853Z</time>
      </trkpt>
      <trkpt lat="45.208076" lon="5.461673">
        <ele>201.645497</ele>
        <time>2017-05-29T20:22:36.888Z</time>
      </trkpt>
      <trkpt lat="45.208373" lon="5.461166">
        <ele>203.889150</ele>
        <time>2017-05-29T20:22:59.754Z</time>
      </trkpt>
      <trkpt lat="45.208800" lon="5.460401">
        <ele>207.210193</ele>
        <time>2017-05-29T20:23:28.838Z</time>
      </trkpt>
      <trkpt lat="45.208198" lon="5.460113">
        <ele>209.942609</ele>
        <time>2017-05-29T20:23:50.809Z</time>
      </trkpt>
      <trkpt lat="45.207757" lon="5.459758">
        <ele>209.724997</ele>
        <time>2017-05-29T20:24:03.227Z</time>
      </trkpt>
      <trkpt lat="45.207407" lon="5.459345">
        <ele>209.529633</ele>
        <time>2017-05-29T20:24:11.421Z</time>
      </trkpt>
      <trkpt lat="45.206644" lon="5.458092">
        <ele>209.446127</ele>
        <time>2017-05-29T20:24:32.835Z</time>
      </trkpt>
      <trkpt lat="45.206490" lon="5.457831">
        <ele>209.597108</ele>
        <time>2017-05-29T20:24:37.699Z</time>
      </trkpt>
      <trkpt lat="45.206259" lon="5.457439">
        <ele>209.823750</ele>
        <time>2017-05-29T20:24:46.298Z</time>
      </trkpt>
      <trkpt lat="45.205664" lon="5.456673">
        <ele>210.329400</ele>
        <time>2017-05-29T20:25:09.434Z</time>
      </trkpt>
      <trkpt lat="45.205461" lon="5.456332">
        <ele>211.728454</ele>
        <time>2017-05-29T20:25:20.632Z</time>
      </trkpt>
      <trkpt lat="45.205106" lon="5.455736">
        <ele>214.182583</ele>
        <time>2017-05-29T20:25:42.801Z</time>
      </trkpt>
      <trkpt lat="45.204844" lon="5.455449">
        <ele>215.659680</ele>
        <time>2017-05-29T20:25:57.047Z</time>
      </trkpt>
      <trkpt lat="45.204572" lon="5.454938">
        <ele>217.673572</ele>
        <time>2017-05-29T20:26:17.625Z</time>
      </trkpt>
      <trkpt lat="45.204520" lon="5.454841">
        <ele>218.056850</ele>
        <time>2017-05-29T20:26:21.495Z</time>
      </trkpt>
      <trkpt lat="45.204431" lon="5.454657">
        <ele>218.688806</ele>
        <time>2017-05-29T20:26:28.479Z</time>
      </trkpt>
      <trkpt lat="45.204325" lon="5.454441">
        <ele>219.372327</ele>
        <time>2017-05-29T20:26:36.458Z</time>
      </trkpt>
      <trkpt lat="45.204045" lon="5.453870">
        <ele>221.178782</ele>
        <time>2017-05-29T20:26:55.635Z</time>
      </trkpt>
      <trkpt lat="45.203960" lon="5.453684">
        <ele>221.754462</ele>
        <time>2017-05-29T20:27:01.663Z</time>
      </trkpt>
      <trkpt lat="45.203879" lon="5.453385">
        <ele>222.586286</ele>
        <time>2017-05-29T20:27:09.982Z</time>
      </trkpt>
      <trkpt lat="45.203819" lon="5.453065">
        <ele>223.446150</ele>
        <time>2017-05-29T20:27:18.145Z</time>
      </trkpt>
      <trkpt lat="45.203811" lon="5.452903">
        <ele>223.867848</ele>
        <time>2017-05-29T20:27:21.904Z</time>
      </trkpt>
      <trkpt lat="45.203759" lon="5.452329">
        <ele>225.122954</ele>
        <time>2017-05-29T20:27:34.248Z</time>
      </trkpt>
      <trkpt lat="45.203749" lon="5.452010">
        <ele>225.417586</ele>
        <time>2017-05-29T20:27:40.774Z</time>
      </trkpt>
      <trkpt lat="45.203734" lon="5.451779">
        <ele>225.631632</ele>
        <time>2017-05-29T20:27:45.541Z</time>
      </trkpt>
      <trkpt lat="45.203655" lon="5.450539">
        <ele>226.780446</ele>
        <time>2017-05-29T20:28:07.927Z</time>
      </trkpt>
      <trkpt lat="45.203606" lon="5.449779">
        <ele>227.514241</ele>
        <time>2017-05-29T20:28:22.359Z</time>
      </trkpt>
      <trkpt lat="45.203381" lon="5.448751">
        <ele>228.713522</ele>
        <time>2017-05-29T20:28:44.066Z</time>
      </trkpt>
      <trkpt lat="45.203371" lon="5.448307">
        <ele>229.208437</ele>
        <time>2017-05-29T20:28:53.273Z</time>
      </trkpt>
      <trkpt lat="45.203481" lon="5.447786">
        <ele>229.814384</ele>
        <time>2017-05-29T20:29:04.514Z</time>
      </trkpt>
      <trkpt lat="45.203659" lon="5.447270">
        <ele>230.470170</ele>
        <time>2017-05-29T20:29:16.215Z</time>
      </trkpt>
      <trkpt lat="45.203988" lon="5.445224">
        <ele>232.944970</ele>
        <time>2017-05-29T20:29:59.539Z</time>
      </trkpt>
      <trkpt lat="45.203992" lon="5.445167">
        <ele>233.012520</ele>
        <time>2017-05-29T20:30:01.018Z</time>
      </trkpt>
      <trkpt lat="45.203766" lon="5.443344">
        <ele>234.331532</ele>
        <time>2017-05-29T20:30:36.248Z</time>
      </trkpt>
      <trkpt lat="45.203382" lon="5.442283">
        <ele>234.864507</ele>
        <time>2017-05-29T20:30:56.439Z</time>
      </trkpt>
      <trkpt lat="45.203062" lon="5.441094">
        <ele>234.707551</ele>
        <time>2017-05-29T20:31:15.879Z</time>
      </trkpt>
      <trkpt lat="45.203054" lon="5.441026">
        <ele>234.699049</ele>
        <time>2017-05-29T20:31:16.842Z</time>
      </trkpt>
      <trkpt lat="45.202999" lon="5.440553">
        <ele>234.639931</ele>
        <time>2017-05-29T20:31:23.782Z</time>
      </trkpt>
      <trkpt lat="45.203158" lon="5.439464">
        <ele>234.693753</ele>
        <time>2017-05-29T20:31:39.812Z</time>
      </trkpt>
      <trkpt lat="45.203260" lon="5.438676">
        <ele>234.808714</ele>
        <time>2017-05-29T20:31:51.970Z</time>
      </trkpt>
      <trkpt lat="45.203296" lon="5.437667">
        <ele>234.953680</ele>
        <time>2017-05-29T20:32:09.934Z</time>
      </trkpt>
      <trkpt lat="45.203282" lon="5.437546">
        <ele>235.024415</ele>
        <time>2017-05-29T20:32:12.222Z</time>
      </trkpt>
      <trkpt lat="45.203252" lon="5.437274">
        <ele>235.214564</ele>
        <time>2017-05-29T20:32:18.462Z</time>
      </trkpt>
      <trkpt lat="45.203130" lon="5.436877">
        <ele>235.513703</ele>
        <time>2017-05-29T20:32:26.982Z</time>
      </trkpt>
      <trkpt lat="45.202932" lon="5.436445">
        <ele>235.869644</ele>
        <time>2017-05-29T20:32:37.108Z</time>
      </trkpt>
      <trkpt lat="45.202870" lon="5.436174">
        <ele>236.066435</ele>
        <time>2017-05-29T20:32:42.023Z</time>
      </trkpt>
      <trkpt lat="45.202921" lon="5.435640">
        <ele>236.438626</ele>
        <time>2017-05-29T20:32:51.975Z</time>
      </trkpt>
      <trkpt lat="45.202993" lon="5.435423">
        <ele>236.604288</ele>
        <time>2017-05-29T20:32:57.047Z</time>
      </trkpt>
      <trkpt lat="45.202890" lon="5.435199">
        <ele>236.689297</ele>
        <time>2017-05-29T20:33:01.162Z</time>
      </trkpt>
      <trkpt lat="45.202139" lon="5.434281">
        <ele>236.248345</ele>
        <time>2017-05-29T20:33:23.234Z</time>
      </trkpt>
      <trkpt lat="45.201487" lon="5.433180">
        <ele>235.365595</ele>
        <time>2017-05-29T20:33:43.791Z</time>
      </trkpt>
      <trkpt lat="45.201445" lon="5.433025">
        <ele>235.130338</ele>
        <time>2017-05-29T20:33:45.792Z</time>
      </trkpt>
      <trkpt lat="45.201428" lon="5.432878">
        <ele>234.919304</ele>
        <time>2017-05-29T20:33:48.730Z</time>
      </trkpt>
      <trkpt lat="45.201436" lon="5.432421">
        <ele>234.271696</ele>
        <time>2017-05-29T20:33:54.752Z</time>
      </trkpt>
      <trkpt lat="45.201372" lon="5.431900">
        <ele>233.522489</ele>
        <time>2017-05-29T20:34:01.644Z</time>
      </trkpt>
      <trkpt lat="45.201275" lon="5.431557">
        <ele>232.998902</ele>
        <time>2017-05-29T20:34:06.105Z</time>
      </trkpt>
      <trkpt lat="45.200873" lon="5.430881">
        <ele>231.257354</ele>
        <time>2017-05-29T20:34:17.262Z</time>
      </trkpt>
      <trkpt lat="45.200275" lon="5.429891">
        <ele>227.793860</ele>
        <time>2017-05-29T20:34:32.403Z</time>
      </trkpt>
      <trkpt lat="45.199984" lon="5.429199">
        <ele>225.653383</ele>
        <time>2017-05-29T20:34:41.788Z</time>
      </trkpt>
      <trkpt lat="45.199937" lon="5.429082">
        <ele>225.260330</ele>
        <time>2017-05-29T20:34:43.183Z</time>
      </trkpt>
      <trkpt lat="45.199830" lon="5.428809">
        <ele>224.302189</ele>
        <time>2017-05-29T20:34:47.111Z</time>
      </trkpt>
      <trkpt lat="45.199693" lon="5.428491">
        <ele>223.158985</ele>
        <time>2017-05-29T20:34:51.216Z</time>
      </trkpt>
      <trkpt lat="45.199638" lon="5.428396">
        <ele>222.781871</ele>
        <time>2017-05-29T20:34:52.944Z</time>
      </trkpt>
      <trkpt lat="45.199563" lon="5.428351">
        <ele>222.427434</ele>
        <time>2017-05-29T20:34:54.135Z</time>
      </trkpt>
      <trkpt lat="45.199370" lon="5.428140">
        <ele>221.366975</ele>
        <time>2017-05-29T20:34:58.318Z</time>
      </trkpt>
      <trkpt lat="45.199127" lon="5.427764">
        <ele>219.802119</ele>
        <time>2017-05-29T20:35:04.231Z</time>
      </trkpt>
      <trkpt lat="45.198847" lon="5.427161">
        <ele>217.592049</ele>
        <time>2017-05-29T20:35:12.356Z</time>
      </trkpt>
      <trkpt lat="45.198789" lon="5.426964">
        <ele>216.966977</ele>
        <time>2017-05-29T20:35:14.794Z</time>
      </trkpt>
      <trkpt lat="45.198790" lon="5.426506">
        <ele>215.626092</ele>
        <time>2017-05-29T20:35:19.892Z</time>
      </trkpt>
      <trkpt lat="45.198757" lon="5.426404">
        <ele>215.297497</ele>
        <time>2017-05-29T20:35:21.242Z</time>
      </trkpt>
      <trkpt lat="45.198682" lon="5.426275">
        <ele>214.807867</ele>
        <time>2017-05-29T20:35:23.124Z</time>
      </trkpt>
      <trkpt lat="45.198326" lon="5.425950">
        <ele>213.049139</ele>
        <time>2017-05-29T20:35:29.970Z</time>
      </trkpt>
      <trkpt lat="45.198202" lon="5.425753">
        <ele>212.275784</ele>
        <time>2017-05-29T20:35:33.073Z</time>
      </trkpt>
      <trkpt lat="45.197997" lon="5.425466">
        <ele>211.079339</ele>
        <time>2017-05-29T20:35:37.807Z</time>
      </trkpt>
      <trkpt lat="45.197727" lon="5.425080">
        <ele>209.751498</ele>
        <time>2017-05-29T20:35:44.373Z</time>
      </trkpt>
      <trkpt lat="45.197281" lon="5.424511">
        <ele>208.156574</ele>
        <time>2017-05-29T20:35:55.011Z</time>
      </trkpt>
      <trkpt lat="45.197049" lon="5.424271">
        <ele>207.393066</ele>
        <time>2017-05-29T20:35:59.900Z</time>
      </trkpt>
      <trkpt lat="45.196255" lon="5.423592">
        <ele>205.706379</ele>
        <time>2017-05-29T20:36:16.412Z</time>
      </trkpt>
      <trkpt lat="45.195999" lon="5.423366">
        <ele>206.126683</ele>
        <time>2017-05-29T20:36:23.052Z</time>
      </trkpt>
      <trkpt lat="45.195993" lon="5.423294">
        <ele>206.197907</ele>
        <time>2017-05-29T20:36:23.880Z</time>
      </trkpt>
      <trkpt lat="45.195790" lon="5.423089">
        <ele>206.545244</ele>
        <time>2017-05-29T20:36:30.128Z</time>
      </trkpt>
      <trkpt lat="45.195587" lon="5.422956">
        <ele>206.856946</ele>
        <time>2017-05-29T20:36:37.027Z</time>
      </trkpt>
      <trkpt lat="45.195529" lon="5.422939">
        <ele>206.939508</ele>
        <time>2017-05-29T20:36:38.036Z</time>
      </trkpt>
      <trkpt lat="45.195534" lon="5.423027">
        <ele>207.026239</ele>
        <time>2017-05-29T20:36:40.246Z</time>
      </trkpt>
      <trkpt lat="45.195206" lon="5.424202">
        <ele>209.446010</ele>
        <time>2017-05-29T20:37:13.950Z</time>
      </trkpt>
      <trkpt lat="45.194722" lon="5.425760">
        <ele>217.243095</ele>
        <time>2017-05-29T20:38:16.169Z</time>
      </trkpt>
      <trkpt lat="45.194634" lon="5.426005">
        <ele>218.502367</ele>
        <time>2017-05-29T20:38:26.682Z</time>
      </trkpt>
      <trkpt lat="45.194406" lon="5.426612">
        <ele>220.819538</ele>
        <time>2017-05-29T20:38:50.148Z</time>
      </trkpt>
      <trkpt lat="45.194355" lon="5.426725">
        <ele>221.180483</ele>
        <time>2017-05-29T20:38:55.007Z</time>
      </trkpt>
      <trkpt lat="45.194257" lon="5.426945">
        <ele>221.880562</ele>
        <time>2017-05-29T20:39:02.689Z</time>
      </trkpt>
      <trkpt lat="45.194118" lon="5.427236">
        <ele>222.826175</ele>
        <time>2017-05-29T20:39:12.860Z</time>
      </trkpt>
      <trkpt lat="45.193066" lon="5.426118">
        <ele>226.957117</ele>
        <time>2017-05-29T20:39:52.640Z</time>
      </trkpt>
      <trkpt lat="45.192863" lon="5.425911">
        <ele>227.282132</ele>
        <time>2017-05-29T20:39:59.066Z</time>
      </trkpt>
      <trkpt lat="45.192530" lon="5.425570">
        <ele>227.816056</ele>
        <time>2017-05-29T20:40:09.582Z</time>
      </trkpt>
      <trkpt lat="45.192400" lon="5.425436">
        <ele>228.024966</ele>
        <time>2017-05-29T20:40:13.942Z</time>
      </trkpt>
      <trkpt lat="45.191865" lon="5.425111">
        <ele>228.781622</ele>
        <time>2017-05-29T20:40:30.020Z</time>
      </trkpt>
      <trkpt lat="45.190308" lon="5.424625">
        <ele>230.029360</ele>
        <time>2017-05-29T20:41:12.345Z</time>
      </trkpt>
      <trkpt lat="45.190309" lon="5.424548">
        <ele>230.071053</ele>
        <time>2017-05-29T20:41:13.513Z</time>
      </trkpt>
      <trkpt lat="45.190244" lon="5.424416">
        <ele>230.158231</ele>
        <time>2017-05-29T20:41:16.078Z</time>
      </trkpt>
      <trkpt lat="45.190186" lon="5.424332">
        <ele>230.216923</ele>
        <time>2017-05-29T20:41:17.915Z</time>
      </trkpt>
      <trkpt lat="45.190156" lon="5.424289">
        <ele>230.174236</ele>
        <time>2017-05-29T20:41:18.887Z</time>
      </trkpt>
      <trkpt lat="45.189320" lon="5.422719">
        <ele>228.785979</ele>
        <time>2017-05-29T20:41:45.488Z</time>
      </trkpt>
      <trkpt lat="45.189062" lon="5.422413">
        <ele>228.449361</ele>
        <time>2017-05-29T20:41:51.516Z</time>
      </trkpt>
      <trkpt lat="45.188658" lon="5.422194">
        <ele>227.790743</ele>
        <time>2017-05-29T20:41:59.368Z</time>
      </trkpt>
      <trkpt lat="45.186730" lon="5.422017">
        <ele>224.440092</ele>
        <time>2017-05-29T20:42:34.694Z</time>
      </trkpt>
      <trkpt lat="45.185525" lon="5.421531">
        <ele>221.704989</ele>
        <time>2017-05-29T20:42:55.835Z</time>
      </trkpt>
      <trkpt lat="45.184306" lon="5.421012">
        <ele>220.501390</ele>
        <time>2017-05-29T20:43:18.101Z</time>
      </trkpt>
      <trkpt lat="45.183989" lon="5.420852">
        <ele>220.186553</ele>
        <time>2017-05-29T20:43:25.718Z</time>
      </trkpt>
      <trkpt lat="45.183631" lon="5.420666">
        <ele>220.734447</ele>
        <time>2017-05-29T20:43:36.261Z</time>
      </trkpt>
      <trkpt lat="45.181620" lon="5.419828">
        <ele>229.310719</ele>
        <time>2017-05-29T20:45:02.980Z</time>
      </trkpt>
      <trkpt lat="45.181365" lon="5.419634">
        <ele>230.539569</ele>
        <time>2017-05-29T20:45:16.167Z</time>
      </trkpt>
      <trkpt lat="45.180325" lon="5.418286">
        <ele>234.815816</ele>
        <time>2017-05-29T20:46:09.155Z</time>
      </trkpt>
      <trkpt lat="45.180013" lon="5.417663">
        <ele>234.673781</ele>
        <time>2017-05-29T20:46:22.329Z</time>
      </trkpt>
      <trkpt lat="45.179538" lon="5.416976">
        <ele>234.494928</ele>
        <time>2017-05-29T20:46:34.539Z</time>
      </trkpt>
      <trkpt lat="45.179299" lon="5.416556">
        <ele>233.413483</ele>
        <time>2017-05-29T20:46:40.563Z</time>
      </trkpt>
      <trkpt lat="45.179181" lon="5.416292">
        <ele>232.135090</ele>
        <time>2017-05-29T20:46:43.888Z</time>
      </trkpt>
      <trkpt lat="45.179105" lon="5.415995">
        <ele>230.842939</ele>
        <time>2017-05-29T20:46:47.214Z</time>
      </trkpt>
      <trkpt lat="45.179100" lon="5.415446">
        <ele>228.597592</ele>
        <time>2017-05-29T20:46:52.847Z</time>
      </trkpt>
      <trkpt lat="45.179191" lon="5.414061">
        <ele>222.952416</ele>
        <time>2017-05-29T20:47:06.952Z</time>
      </trkpt>
      <trkpt lat="45.179150" lon="5.413249">
        <ele>219.754865</ele>
        <time>2017-05-29T20:47:15.220Z</time>
      </trkpt>
      <trkpt lat="45.178788" lon="5.411281">
        <ele>213.243884</ele>
        <time>2017-05-29T20:47:37.082Z</time>
      </trkpt>
      <trkpt lat="45.178437" lon="5.410394">
        <ele>211.910866</ele>
        <time>2017-05-29T20:47:50.172Z</time>
      </trkpt>
      <trkpt lat="45.178364" lon="5.410251">
        <ele>211.679488</ele>
        <time>2017-05-29T20:47:52.762Z</time>
      </trkpt>
      <trkpt lat="45.177992" lon="5.409549">
        <ele>210.651833</ele>
        <time>2017-05-29T20:48:05.991Z</time>
      </trkpt>
      <trkpt lat="45.177464" lon="5.408655">
        <ele>210.814554</ele>
        <time>2017-05-29T20:48:25.269Z</time>
      </trkpt>
      <trkpt lat="45.177419" lon="5.408572">
        <ele>210.829163</ele>
        <time>2017-05-29T20:48:27.890Z</time>
      </trkpt>
      <trkpt lat="45.177237" lon="5.408082">
        <ele>210.906437</ele>
        <time>2017-05-29T20:48:37.009Z</time>
      </trkpt>
      <trkpt lat="45.177086" lon="5.407640">
        <ele>210.974965</ele>
        <time>2017-05-29T20:48:44.877Z</time>
      </trkpt>
      <trkpt lat="45.177024" lon="5.407184">
        <ele>210.929569</ele>
        <time>2017-05-29T20:48:51.981Z</time>
      </trkpt>
      <trkpt lat="45.177095" lon="5.406012">
        <ele>210.680732</ele>
        <time>2017-05-29T20:49:08.846Z</time>
      </trkpt>
      <trkpt lat="45.177098" lon="5.405247">
        <ele>210.518904</ele>
        <time>2017-05-29T20:49:20.818Z</time>
      </trkpt>
      <trkpt lat="45.177065" lon="5.404907">
        <ele>210.429916</ele>
        <time>2017-05-29T20:49:26.320Z</time>
      </trkpt>
      <trkpt lat="45.176278" lon="5.402578">
        <ele>208.822454</ele>
        <time>2017-05-29T20:50:03.121Z</time>
      </trkpt>
      <trkpt lat="45.176235" lon="5.402366">
        <ele>208.252507</ele>
        <time>2017-05-29T20:50:05.840Z</time>
      </trkpt>
      <trkpt lat="45.176263" lon="5.401444">
        <ele>205.868207</ele>
        <time>2017-05-29T20:50:16.439Z</time>
      </trkpt>
      <trkpt lat="45.175699" lon="5.399724">
        <ele>201.311187</ele>
        <time>2017-05-29T20:50:36.798Z</time>
      </trkpt>
      <trkpt lat="45.175611" lon="5.399566">
        <ele>200.913126</ele>
        <time>2017-05-29T20:50:38.867Z</time>
      </trkpt>
      <trkpt lat="45.175541" lon="5.399501">
        <ele>200.678513</ele>
        <time>2017-05-29T20:50:40.202Z</time>
      </trkpt>
      <trkpt lat="45.175220" lon="5.399236">
        <ele>199.637009</ele>
        <time>2017-05-29T20:50:46.173Z</time>
      </trkpt>
      <trkpt lat="45.175092" lon="5.399070">
        <ele>199.150668</ele>
        <time>2017-05-29T20:50:49.271Z</time>
      </trkpt>
      <trkpt lat="45.175018" lon="5.398941">
        <ele>198.821892</ele>
        <time>2017-05-29T20:50:51.091Z</time>
      </trkpt>
      <trkpt lat="45.174901" lon="5.398715">
        <ele>198.267591</ele>
        <time>2017-05-29T20:50:55.328Z</time>
      </trkpt>
      <trkpt lat="45.174853" lon="5.398562">
        <ele>197.936534</ele>
        <time>2017-05-29T20:50:57.260Z</time>
      </trkpt>
      <trkpt lat="45.174833" lon="5.398396">
        <ele>197.603619</ele>
        <time>2017-05-29T20:50:59.732Z</time>
      </trkpt>
      <trkpt lat="45.174852" lon="5.398196">
        <ele>197.641382</ele>
        <time>2017-05-29T20:51:03.493Z</time>
      </trkpt>
      <trkpt lat="45.174896" lon="5.398018">
        <ele>198.156015</ele>
        <time>2017-05-29T20:51:05.897Z</time>
      </trkpt>
      <trkpt lat="45.175083" lon="5.397615">
        <ele>199.472345</ele>
        <time>2017-05-29T20:51:17.007Z</time>
      </trkpt>
      <trkpt lat="45.175113" lon="5.397357">
        <ele>200.185761</ele>
        <time>2017-05-29T20:51:23.776Z</time>
      </trkpt>
      <trkpt lat="45.175088" lon="5.397119">
        <ele>200.842269</ele>
        <time>2017-05-29T20:51:30.180Z</time>
      </trkpt>
      <trkpt lat="45.175032" lon="5.396933">
        <ele>201.394080</ele>
        <time>2017-05-29T20:51:35.876Z</time>
      </trkpt>
      <trkpt lat="45.174768" lon="5.396192">
        <ele>203.659293</ele>
        <time>2017-05-29T20:52:02.647Z</time>
      </trkpt>
      <trkpt lat="45.174576" lon="5.395878">
        <ele>205.028195</ele>
        <time>2017-05-29T20:52:17.686Z</time>
      </trkpt>
      <trkpt lat="45.174380" lon="5.395671">
        <ele>206.474129</ele>
        <time>2017-05-29T20:52:30.268Z</time>
      </trkpt>
      <trkpt lat="45.173786" lon="5.395295">
        <ele>210.323090</ele>
        <time>2017-05-29T20:53:01.864Z</time>
      </trkpt>
      <trkpt lat="45.173380" lon="5.395017">
        <ele>212.990769</ele>
        <time>2017-05-29T20:53:22.382Z</time>
      </trkpt>
      <trkpt lat="45.173096" lon="5.394720">
        <ele>215.032201</ele>
        <time>2017-05-29T20:53:37.039Z</time>
      </trkpt>
      <trkpt lat="45.172477" lon="5.394010">
        <ele>217.203267</ele>
        <time>2017-05-29T20:54:06.486Z</time>
      </trkpt>
      <trkpt lat="45.172291" lon="5.393727">
        <ele>217.947175</ele>
        <time>2017-05-29T20:54:15.339Z</time>
      </trkpt>
      <trkpt lat="45.172157" lon="5.393399">
        <ele>218.676058</ele>
        <time>2017-05-29T20:54:22.515Z</time>
      </trkpt>
      <trkpt lat="45.172000" lon="5.392858">
        <ele>219.800922</ele>
        <time>2017-05-29T20:54:33.481Z</time>
      </trkpt>
      <trkpt lat="45.171584" lon="5.391971">
        <ele>221.184584</ele>
        <time>2017-05-29T20:54:54.698Z</time>
      </trkpt>
      <trkpt lat="45.171393" lon="5.391706">
        <ele>221.665042</ele>
        <time>2017-05-29T20:55:02.603Z</time>
      </trkpt>
      <trkpt lat="45.171139" lon="5.391433">
        <ele>222.238120</ele>
        <time>2017-05-29T20:55:12.287Z</time>
      </trkpt>
      <trkpt lat="45.170306" lon="5.390749">
        <ele>223.893696</ele>
        <time>2017-05-29T20:55:42.333Z</time>
      </trkpt>
      <trkpt lat="45.169626" lon="5.389539">
        <ele>225.678930</ele>
        <time>2017-05-29T20:56:14.421Z</time>
      </trkpt>
      <trkpt lat="45.169299" lon="5.388812">
        <ele>226.024100</ele>
        <time>2017-05-29T20:56:29.380Z</time>
      </trkpt>
      <trkpt lat="45.169158" lon="5.388578">
        <ele>225.993387</ele>
        <time>2017-05-29T20:56:34.291Z</time>
      </trkpt>
      <trkpt lat="45.168547" lon="5.387982">
        <ele>225.888439</ele>
        <time>2017-05-29T20:56:49.617Z</time>
      </trkpt>
      <trkpt lat="45.168184" lon="5.387738">
        <ele>225.831589</ele>
        <time>2017-05-29T20:56:57.400Z</time>
      </trkpt>
      <trkpt lat="45.166894" lon="5.387031">
        <ele>225.887095</ele>
        <time>2017-05-29T20:57:26.077Z</time>
      </trkpt>
      <trkpt lat="45.162756" lon="5.384749">
        <ele>230.377883</ele>
        <time>2017-05-29T20:59:28.401Z</time>
      </trkpt>
      <trkpt lat="45.162778" lon="5.384588">
        <ele>230.352999</ele>
        <time>2017-05-29T20:59:30.967Z</time>
      </trkpt>
      <trkpt lat="45.162525" lon="5.382869">
        <ele>230.086542</ele>
        <time>2017-05-29T20:59:57.186Z</time>
      </trkpt>
      <trkpt lat="45.161943" lon="5.381827">
        <ele>229.296450</ele>
        <time>2017-05-29T21:00:15.010Z</time>
      </trkpt>
      <trkpt lat="45.161846" lon="5.381652">
        <ele>229.153558</ele>
        <time>2017-05-29T21:00:18.037Z</time>
      </trkpt>
      <trkpt lat="45.161361" lon="5.381095">
        <ele>228.585397</ele>
        <time>2017-05-29T21:00:30.400Z</time>
      </trkpt>
      <trkpt lat="45.160953" lon="5.380505">
        <ele>228.114115</ele>
        <time>2017-05-29T21:00:42.053Z</time>
      </trkpt>
      <trkpt lat="45.160628" lon="5.379818">
        <ele>227.666983</ele>
        <time>2017-05-29T21:00:53.704Z</time>
      </trkpt>
      <trkpt lat="45.160492" lon="5.379367">
        <ele>227.401871</ele>
        <time>2017-05-29T21:01:00.575Z</time>
      </trkpt>
      <trkpt lat="45.160212" lon="5.378906">
        <ele>227.073019</ele>
        <time>2017-05-29T21:01:09.055Z</time>
      </trkpt>
      <trkpt lat="45.159833" lon="5.378176">
        <ele>226.565562</ele>
        <time>2017-05-29T21:01:21.609Z</time>
      </trkpt>
      <trkpt lat="45.159470" lon="5.377704">
        <ele>226.173955</ele>
        <time>2017-05-29T21:01:31.299Z</time>
      </trkpt>
      <trkpt lat="45.158816" lon="5.376284">
        <ele>225.346781</ele>
        <time>2017-05-29T21:01:55.154Z</time>
      </trkpt>
      <trkpt lat="45.157949" lon="5.375008">
        <ele>224.662586</ele>
        <time>2017-05-29T21:02:20.838Z</time>
      </trkpt>
      <trkpt lat="45.157173" lon="5.374006">
        <ele>224.352007</ele>
        <time>2017-05-29T21:02:43.067Z</time>
      </trkpt>
      <trkpt lat="45.156757" lon="5.373509">
        <ele>224.197747</ele>
        <time>2017-05-29T21:02:54.747Z</time>
      </trkpt>
      <trkpt lat="45.155979" lon="5.372806">
        <ele>223.901070</ele>
        <time>2017-05-29T21:03:14.544Z</time>
      </trkpt>
      <trkpt lat="45.155674" lon="5.372419">
        <ele>223.763532</ele>
        <time>2017-05-29T21:03:23.285Z</time>
      </trkpt>
      <trkpt lat="45.155470" lon="5.372097">
        <ele>223.660952</ele>
        <time>2017-05-29T21:03:29.755Z</time>
      </trkpt>
      <trkpt lat="45.154557" lon="5.370688">
        <ele>222.360054</ele>
        <time>2017-05-29T21:03:57.121Z</time>
      </trkpt>
      <trkpt lat="45.154522" lon="5.370634">
        <ele>222.295720</ele>
        <time>2017-05-29T21:03:58.072Z</time>
      </trkpt>
      <trkpt lat="45.154050" lon="5.370001">
        <ele>221.487643</ele>
        <time>2017-05-29T21:04:09.953Z</time>
      </trkpt>
      <trkpt lat="45.153900" lon="5.368991">
        <ele>218.123835</ele>
        <time>2017-05-29T21:04:22.592Z</time>
      </trkpt>
      <trkpt lat="45.153615" lon="5.366912">
        <ele>208.943868</ele>
        <time>2017-05-29T21:04:44.007Z</time>
      </trkpt>
      <trkpt lat="45.153660" lon="5.366562">
        <ele>206.750869</ele>
        <time>2017-05-29T21:04:47.440Z</time>
      </trkpt>
      <trkpt lat="45.153984" lon="5.365564">
        <ele>199.978539</ele>
        <time>2017-05-29T21:04:57.904Z</time>
      </trkpt>
      <trkpt lat="45.154025" lon="5.365437">
        <ele>199.117572</ele>
        <time>2017-05-29T21:04:59.170Z</time>
      </trkpt>
      <trkpt lat="45.154972" lon="5.362974">
        <ele>189.968017</ele>
        <time>2017-05-29T21:05:28.710Z</time>
      </trkpt>
      <trkpt lat="45.155115" lon="5.362602">
        <ele>189.591483</ele>
        <time>2017-05-29T21:05:39.902Z</time>
      </trkpt>
      <trkpt lat="45.155322" lon="5.362163">
        <ele>192.287146</ele>
        <time>2017-05-29T21:05:56.999Z</time>
      </trkpt>
      <trkpt lat="45.155317" lon="5.361999">
        <ele>193.125063</ele>
        <time>2017-05-29T21:06:04.770Z</time>
      </trkpt>
      <trkpt lat="45.154732" lon="5.361026">
        <ele>199.651857</ele>
        <time>2017-05-29T21:06:56.951Z</time>
      </trkpt>
      <trkpt lat="45.153426" lon="5.359507">
        <ele>213.398432</ele>
        <time>2017-05-29T21:08:34.490Z</time>
      </trkpt>
      <trkpt lat="45.152987" lon="5.359130">
        <ele>217.644417</ele>
        <time>2017-05-29T21:08:59.898Z</time>
      </trkpt>
      <trkpt lat="45.151743" lon="5.358482">
        <ele>227.598559</ele>
        <time>2017-05-29T21:10:10.154Z</time>
      </trkpt>
      <trkpt lat="45.151623" lon="5.358318">
        <ele>228.850365</ele>
        <time>2017-05-29T21:10:18.744Z</time>
      </trkpt>
      <trkpt lat="45.151557" lon="5.358152">
        <ele>229.859775</ele>
        <time>2017-05-29T21:10:25.805Z</time>
      </trkpt>
      <trkpt lat="45.151537" lon="5.357959">
        <ele>230.835153</ele>
        <time>2017-05-29T21:10:33.388Z</time>
      </trkpt>
      <trkpt lat="45.151553" lon="5.357659">
        <ele>231.898356</ele>
        <time>2017-05-29T21:10:43.882Z</time>
      </trkpt>
      <trkpt lat="45.151755" lon="5.357112">
        <ele>234.080389</ele>
        <time>2017-05-29T21:11:05.905Z</time>
      </trkpt>
      <trkpt lat="45.151553" lon="5.356977">
        <ele>235.199402</ele>
        <time>2017-05-29T21:11:16.057Z</time>
      </trkpt>
      <trkpt lat="45.149678" lon="5.355427">
        <ele>242.891736</ele>
        <time>2017-05-29T21:12:34.111Z</time>
      </trkpt>
      <trkpt lat="45.148892" lon="5.354608">
        <ele>244.616873</ele>
        <time>2017-05-29T21:13:00.643Z</time>
      </trkpt>
      <trkpt lat="45.148125" lon="5.353999">
        <ele>245.401784</ele>
        <time>2017-05-29T21:13:23.999Z</time>
      </trkpt>
      <trkpt lat="45.148029" lon="5.353911">
        <ele>245.503854</ele>
        <time>2017-05-29T21:13:27.065Z</time>
      </trkpt>
      <trkpt lat="45.147966" lon="5.353852">
        <ele>245.571268</ele>
        <time>2017-05-29T21:13:29.072Z</time>
      </trkpt>
      <trkpt lat="45.147212" lon="5.352859">
        <ele>246.152252</ele>
        <time>2017-05-29T21:13:55.565Z</time>
      </trkpt>
      <trkpt lat="45.145789" lon="5.351348">
        <ele>246.589158</ele>
        <time>2017-05-29T21:14:38.734Z</time>
      </trkpt>
      <trkpt lat="45.143766" lon="5.349029">
        <ele>245.930259</ele>
        <time>2017-05-29T21:15:36.682Z</time>
      </trkpt>
      <trkpt lat="45.143088" lon="5.348229">
        <ele>245.032379</ele>
        <time>2017-05-29T21:15:54.542Z</time>
      </trkpt>
      <trkpt lat="45.142831" lon="5.347928">
        <ele>244.601041</ele>
        <time>2017-05-29T21:16:01.122Z</time>
      </trkpt>
      <trkpt lat="45.142623" lon="5.347736">
        <ele>244.279882</ele>
        <time>2017-05-29T21:16:05.944Z</time>
      </trkpt>
      <trkpt lat="45.142470" lon="5.347621">
        <ele>244.055807</ele>
        <time>2017-05-29T21:16:09.235Z</time>
      </trkpt>
      <trkpt lat="45.142401" lon="5.347569">
        <ele>243.954695</ele>
        <time>2017-05-29T21:16:10.577Z</time>
      </trkpt>
      <trkpt lat="45.141286" lon="5.346793">
        <ele>242.195257</ele>
        <time>2017-05-29T21:16:34.254Z</time>
      </trkpt>
      <trkpt lat="45.141141" lon="5.346647">
        <ele>241.934495</ele>
        <time>2017-05-29T21:16:37.492Z</time>
      </trkpt>
      <trkpt lat="45.140773" lon="5.346077">
        <ele>241.135352</ele>
        <time>2017-05-29T21:16:48.367Z</time>
      </trkpt>
      <trkpt lat="45.140433" lon="5.345441">
        <ele>240.429462</ele>
        <time>2017-05-29T21:16:59.529Z</time>
      </trkpt>
      <trkpt lat="45.140161" lon="5.344817">
        <ele>239.837437</ele>
        <time>2017-05-29T21:17:10.238Z</time>
      </trkpt>
      <trkpt lat="45.140110" lon="5.344712">
        <ele>239.734545</ele>
        <time>2017-05-29T21:17:12.077Z</time>
      </trkpt>
      <trkpt lat="45.140004" lon="5.344684">
        <ele>239.611172</ele>
        <time>2017-05-29T21:17:14.121Z</time>
      </trkpt>
      <trkpt lat="45.139197" lon="5.344845">
        <ele>238.641093</ele>
        <time>2017-05-29T21:17:30.226Z</time>
      </trkpt>
      <trkpt lat="45.138852" lon="5.344696">
        <ele>238.095925</ele>
        <time>2017-05-29T21:17:37.178Z</time>
      </trkpt>
      <trkpt lat="45.138745" lon="5.344578">
        <ele>237.891008</ele>
        <time>2017-05-29T21:17:39.878Z</time>
      </trkpt>
      <trkpt lat="45.138640" lon="5.344372">
        <ele>237.620011</ele>
        <time>2017-05-29T21:17:43.031Z</time>
      </trkpt>
      <trkpt lat="45.137750" lon="5.343094">
        <ele>235.845154</ele>
        <time>2017-05-29T21:18:07.477Z</time>
      </trkpt>
      <trkpt lat="45.137638" lon="5.342903">
        <ele>235.680050</ele>
        <time>2017-05-29T21:18:10.631Z</time>
      </trkpt>
      <trkpt lat="45.137555" lon="5.342677">
        <ele>235.510679</ele>
        <time>2017-05-29T21:18:14.551Z</time>
      </trkpt>
      <trkpt lat="45.137296" lon="5.341891">
        <ele>234.934001</ele>
        <time>2017-05-29T21:18:27.243Z</time>
      </trkpt>
      <trkpt lat="45.137016" lon="5.341226">
        <ele>234.419190</ele>
        <time>2017-05-29T21:18:38.791Z</time>
      </trkpt>
      <trkpt lat="45.136476" lon="5.340471">
        <ele>233.296926</ele>
        <time>2017-05-29T21:18:54.913Z</time>
      </trkpt>
      <trkpt lat="45.136259" lon="5.340080">
        <ele>232.767303</ele>
        <time>2017-05-29T21:19:01.641Z</time>
      </trkpt>
      <trkpt lat="45.136218" lon="5.340004">
        <ele>232.665449</ele>
        <time>2017-05-29T21:19:02.874Z</time>
      </trkpt>
      <trkpt lat="45.135892" lon="5.339423">
        <ele>231.875134</ele>
        <time>2017-05-29T21:19:12.509Z</time>
      </trkpt>
      <trkpt lat="45.135477" lon="5.338890">
        <ele>230.085566</ele>
        <time>2017-05-29T21:19:22.491Z</time>
      </trkpt>
      <trkpt lat="45.135336" lon="5.338720">
        <ele>229.392487</ele>
        <time>2017-05-29T21:19:25.511Z</time>
      </trkpt>
      <trkpt lat="45.134934" lon="5.338255">
        <ele>227.449748</ele>
        <time>2017-05-29T21:19:34.030Z</time>
      </trkpt>
      <trkpt lat="45.134443" lon="5.337835">
        <ele>225.302504</ele>
        <time>2017-05-29T21:19:43.303Z</time>
      </trkpt>
      <trkpt lat="45.134176" lon="5.337670">
        <ele>224.264197</ele>
        <time>2017-05-29T21:19:48.082Z</time>
      </trkpt>
      <trkpt lat="45.134063" lon="5.337679">
        <ele>223.871154</ele>
        <time>2017-05-29T21:19:49.811Z</time>
      </trkpt>
      <trkpt lat="45.133350" lon="5.337730">
        <ele>221.391911</ele>
        <time>2017-05-29T21:20:01.599Z</time>
      </trkpt>
      <trkpt lat="45.133049" lon="5.337857">
        <ele>220.301282</ele>
        <time>2017-05-29T21:20:06.988Z</time>
      </trkpt>
      <trkpt lat="45.132890" lon="5.337868">
        <ele>219.748452</ele>
        <time>2017-05-29T21:20:09.661Z</time>
      </trkpt>
      <trkpt lat="45.132740" lon="5.337806">
        <ele>219.205841</ele>
        <time>2017-05-29T21:20:12.478Z</time>
      </trkpt>
      <trkpt lat="45.132512" lon="5.337614">
        <ele>218.405134</ele>
        <time>2017-05-29T21:20:17.185Z</time>
      </trkpt>
      <trkpt lat="45.132079" lon="5.336906">
        <ele>216.796542</ele>
        <time>2017-05-29T21:20:30.439Z</time>
      </trkpt>
      <trkpt lat="45.131786" lon="5.336469">
        <ele>215.761554</ele>
        <time>2017-05-29T21:20:39.304Z</time>
      </trkpt>
      <trkpt lat="45.131116" lon="5.335935">
        <ele>212.403080</ele>
        <time>2017-05-29T21:20:52.580Z</time>
      </trkpt>
      <trkpt lat="45.130599" lon="5.335707">
        <ele>206.403450</ele>
        <time>2017-05-29T21:21:00.449Z</time>
      </trkpt>
      <trkpt lat="45.130274" lon="5.335591">
        <ele>202.689778</ele>
        <time>2017-05-29T21:21:05.046Z</time>
      </trkpt>
      <trkpt lat="45.130143" lon="5.335607">
        <ele>201.232817</ele>
        <time>2017-05-29T21:21:06.837Z</time>
      </trkpt>
      <trkpt lat="45.129391" lon="5.335649">
        <ele>192.703457</ele>
        <time>2017-05-29T21:21:17.089Z</time>
      </trkpt>
      <trkpt lat="45.128899" lon="5.335668">
        <ele>186.551761</ele>
        <time>2017-05-29T21:21:23.756Z</time>
      </trkpt>
      <trkpt lat="45.128687" lon="5.335553">
        <ele>183.714593</ele>
        <time>2017-05-29T21:21:26.839Z</time>
      </trkpt>
      <trkpt lat="45.128202" lon="5.334330">
        <ele>171.748421</ele>
        <time>2017-05-29T21:21:40.686Z</time>
      </trkpt>
      <trkpt lat="45.127877" lon="5.333847">
        <ele>170.157741</ele>
        <time>2017-05-29T21:21:48.188Z</time>
      </trkpt>
      <trkpt lat="45.127582" lon="5.333707">
        <ele>169.106872</ele>
        <time>2017-05-29T21:21:53.973Z</time>
      </trkpt>
      <trkpt lat="45.126787" lon="5.333053">
        <ele>166.001855</ele>
        <time>2017-05-29T21:22:11.781Z</time>
      </trkpt>
      <trkpt lat="45.126242" lon="5.331851">
        <ele>165.625694</ele>
        <time>2017-05-29T21:22:33.507Z</time>
      </trkpt>
      <trkpt lat="45.126052" lon="5.331251">
        <ele>165.529921</ele>
        <time>2017-05-29T21:22:44.618Z</time>
      </trkpt>
      <trkpt lat="45.125946" lon="5.330639">
        <ele>165.466701</ele>
        <time>2017-05-29T21:22:55.792Z</time>
      </trkpt>
      <trkpt lat="45.125621" lon="5.329597">
        <ele>165.653451</ele>
        <time>2017-05-29T21:23:15.756Z</time>
      </trkpt>
      <trkpt lat="45.125710" lon="5.329235">
        <ele>165.716290</ele>
        <time>2017-05-29T21:23:22.198Z</time>
      </trkpt>
      <trkpt lat="45.125651" lon="5.328802">
        <ele>165.788579</ele>
        <time>2017-05-29T21:23:29.439Z</time>
      </trkpt>
      <trkpt lat="45.124313" lon="5.324493">
        <ele>165.645846</ele>
        <time>2017-05-29T21:24:40.987Z</time>
      </trkpt>
      <trkpt lat="45.124156" lon="5.323894">
        <ele>165.683223</ele>
        <time>2017-05-29T21:24:51.898Z</time>
      </trkpt>
      <trkpt lat="45.124126" lon="5.323462">
        <ele>165.892549</ele>
        <time>2017-05-29T21:24:59.541Z</time>
      </trkpt>
      <trkpt lat="45.124285" lon="5.322967">
        <ele>166.453525</ele>
        <time>2017-05-29T21:25:09.027Z</time>
      </trkpt>
      <trkpt lat="45.124454" lon="5.322693">
        <ele>166.828896</ele>
        <time>2017-05-29T21:25:15.926Z</time>
      </trkpt>
      <trkpt lat="45.124495" lon="5.322627">
        <ele>166.919595</ele>
        <time>2017-05-29T21:25:17.734Z</time>
      </trkpt>
      <trkpt lat="45.124338" lon="5.322305">
        <ele>167.323300</ele>
        <time>2017-05-29T21:25:26.057Z</time>
      </trkpt>
      <trkpt lat="45.123973" lon="5.322081">
        <ele>167.904744</ele>
        <time>2017-05-29T21:25:38.585Z</time>
      </trkpt>
      <trkpt lat="45.123768" lon="5.321494">
        <ele>168.726120</ele>
        <time>2017-05-29T21:25:53.359Z</time>
      </trkpt>
      <trkpt lat="45.123723" lon="5.321295">
        <ele>169.065679</ele>
        <time>2017-05-29T21:25:58.148Z</time>
      </trkpt>
      <trkpt lat="45.123588" lon="5.320693">
        <ele>170.092099</ele>
        <time>2017-05-29T21:26:12.438Z</time>
      </trkpt>
      <trkpt lat="45.123361" lon="5.319798">
        <ele>171.637512</ele>
        <time>2017-05-29T21:26:34.012Z</time>
      </trkpt>
      <trkpt lat="45.123084" lon="5.318881">
        <ele>173.383705</ele>
        <time>2017-05-29T21:26:57.667Z</time>
      </trkpt>
      <trkpt lat="45.122676" lon="5.316861">
        <ele>177.369562</ele>
        <time>2017-05-29T21:27:47.341Z</time>
      </trkpt>
      <trkpt lat="45.122686" lon="5.315673">
        <ele>180.536993</ele>
        <time>2017-05-29T21:28:18.572Z</time>
      </trkpt>
      <trkpt lat="45.122498" lon="5.314372">
        <ele>184.078239</ele>
        <time>2017-05-29T21:28:56.100Z</time>
      </trkpt>
      <trkpt lat="45.122486" lon="5.313418">
        <ele>186.781625</ele>
        <time>2017-05-29T21:29:23.942Z</time>
      </trkpt>
      <trkpt lat="45.122255" lon="5.311616">
        <ele>191.653278</ele>
        <time>2017-05-29T21:30:14.764Z</time>
      </trkpt>
      <trkpt lat="45.121987" lon="5.310249">
        <ele>193.805638</ele>
        <time>2017-05-29T21:30:46.460Z</time>
      </trkpt>
      <trkpt lat="45.121639" lon="5.309336">
        <ele>195.291118</ele>
        <time>2017-05-29T21:31:07.449Z</time>
      </trkpt>
      <trkpt lat="45.121369" lon="5.308643">
        <ele>196.019260</ele>
        <time>2017-05-29T21:31:22.737Z</time>
      </trkpt>
      <trkpt lat="45.120288" lon="5.305541">
        <ele>198.340173</ele>
        <time>2017-05-29T21:32:32.791Z</time>
      </trkpt>
      <trkpt lat="45.119908" lon="5.304249">
        <ele>197.074545</ele>
        <time>2017-05-29T21:32:53.290Z</time>
      </trkpt>
      <trkpt lat="45.119191" lon="5.302744">
        <ele>192.977380</ele>
        <time>2017-05-29T21:33:14.450Z</time>
      </trkpt>
      <trkpt lat="45.118678" lon="5.301876">
        <ele>188.942741</ele>
        <time>2017-05-29T21:33:26.810Z</time>
      </trkpt>
      <trkpt lat="45.118183" lon="5.300131">
        <ele>182.808231</ele>
        <time>2017-05-29T21:33:47.816Z</time>
      </trkpt>
      <trkpt lat="45.118212" lon="5.298892">
        <ele>180.172389</ele>
        <time>2017-05-29T21:34:02.827Z</time>
      </trkpt>
      <trkpt lat="45.118002" lon="5.296815">
        <ele>177.908703</ele>
        <time>2017-05-29T21:34:31.415Z</time>
      </trkpt>
      <trkpt lat="45.117789" lon="5.295966">
        <ele>177.614006</ele>
        <time>2017-05-29T21:34:46.208Z</time>
      </trkpt>
      <trkpt lat="45.117694" lon="5.295256">
        <ele>177.922590</ele>
        <time>2017-05-29T21:34:59.627Z</time>
      </trkpt>
      <trkpt lat="45.117200" lon="5.293892">
        <ele>180.241413</ele>
        <time>2017-05-29T21:35:33.607Z</time>
      </trkpt>
      <trkpt lat="45.117043" lon="5.292183">
        <ele>183.355107</ele>
        <time>2017-05-29T21:36:17.893Z</time>
      </trkpt>
      <trkpt lat="45.116782" lon="5.291052">
        <ele>185.755902</ele>
        <time>2017-05-29T21:36:47.531Z</time>
      </trkpt>
      <trkpt lat="45.116538" lon="5.289772">
        <ele>187.077906</ele>
        <time>2017-05-29T21:37:16.422Z</time>
      </trkpt>
      <trkpt lat="45.115579" lon="5.286053">
        <ele>188.253522</ele>
        <time>2017-05-29T21:38:22.588Z</time>
      </trkpt>
      <trkpt lat="45.115198" lon="5.284956">
        <ele>188.801033</ele>
        <time>2017-05-29T21:38:42.928Z</time>
      </trkpt>
      <trkpt lat="45.114756" lon="5.284103">
        <ele>189.336583</ele>
        <time>2017-05-29T21:39:03.172Z</time>
      </trkpt>
      <trkpt lat="45.114588" lon="5.283909">
        <ele>189.491997</ele>
        <time>2017-05-29T21:39:09.517Z</time>
      </trkpt>
      <trkpt lat="45.114416" lon="5.283308">
        <ele>189.574539</ele>
        <time>2017-05-29T21:39:23.225Z</time>
      </trkpt>
      <trkpt lat="45.114194" lon="5.282597">
        <ele>189.601039</ele>
        <time>2017-05-29T21:39:37.761Z</time>
      </trkpt>
      <trkpt lat="45.113993" lon="5.281862">
        <ele>189.627906</ele>
        <time>2017-05-29T21:39:51.238Z</time>
      </trkpt>
      <trkpt lat="45.113369" lon="5.280476">
        <ele>185.419631</ele>
        <time>2017-05-29T21:40:10.874Z</time>
      </trkpt>
      <trkpt lat="45.112852" lon="5.279380">
        <ele>180.706557</ele>
        <time>2017-05-29T21:40:24.118Z</time>
      </trkpt>
      <trkpt lat="45.112533" lon="5.278996">
        <ele>177.943450</ele>
        <time>2017-05-29T21:40:29.989Z</time>
      </trkpt>
      <trkpt lat="45.111833" lon="5.278762">
        <ele>173.096463</ele>
        <time>2017-05-29T21:40:40.174Z</time>
      </trkpt>
      <trkpt lat="45.111822" lon="5.278970">
        <ele>172.104427</ele>
        <time>2017-05-29T21:40:42.302Z</time>
      </trkpt>
      <trkpt lat="45.111747" lon="5.279214">
        <ele>170.838648</ele>
        <time>2017-05-29T21:40:45.053Z</time>
      </trkpt>
      <trkpt lat="45.111644" lon="5.279162">
        <ele>170.101761</ele>
        <time>2017-05-29T21:40:46.735Z</time>
      </trkpt>
      <trkpt lat="45.111491" lon="5.279158">
        <ele>169.070477</ele>
        <time>2017-05-29T21:40:49.107Z</time>
      </trkpt>
      <trkpt lat="45.111269" lon="5.278991">
        <ele>168.082252</ele>
        <time>2017-05-29T21:40:53.104Z</time>
      </trkpt>
      <trkpt lat="45.111211" lon="5.278905">
        <ele>167.902736</ele>
        <time>2017-05-29T21:40:54.420Z</time>
      </trkpt>
      <trkpt lat="45.111153" lon="5.278820">
        <ele>167.724307</ele>
        <time>2017-05-29T21:40:55.795Z</time>
      </trkpt>
      <trkpt lat="45.110845" lon="5.278365">
        <ele>166.772852</ele>
        <time>2017-05-29T21:41:03.519Z</time>
      </trkpt>
      <trkpt lat="45.110609" lon="5.277613">
        <ele>165.530840</ele>
        <time>2017-05-29T21:41:15.338Z</time>
      </trkpt>
      <trkpt lat="45.110342" lon="5.277113">
        <ele>164.584610</ele>
        <time>2017-05-29T21:41:25.204Z</time>
      </trkpt>
      <trkpt lat="45.110196" lon="5.276844">
        <ele>164.540529</ele>
        <time>2017-05-29T21:41:30.742Z</time>
      </trkpt>
      <trkpt lat="45.109961" lon="5.276517">
        <ele>164.506815</ele>
        <time>2017-05-29T21:41:38.198Z</time>
      </trkpt>
      <trkpt lat="45.109918" lon="5.276431">
        <ele>164.499201</ele>
        <time>2017-05-29T21:41:40.036Z</time>
      </trkpt>
      <trkpt lat="45.109742" lon="5.276076">
        <ele>164.467861</ele>
        <time>2017-05-29T21:41:46.893Z</time>
      </trkpt>
      <trkpt lat="45.109347" lon="5.274746">
        <ele>164.550439</ele>
        <time>2017-05-29T21:42:10.077Z</time>
      </trkpt>
      <trkpt lat="45.108857" lon="5.273660">
        <ele>165.522487</ele>
        <time>2017-05-29T21:42:32.902Z</time>
      </trkpt>
      <trkpt lat="45.108413" lon="5.272987">
        <ele>166.217235</ele>
        <time>2017-05-29T21:42:51.835Z</time>
      </trkpt>
      <trkpt lat="45.106742" lon="5.271474">
        <ele>172.887290</ele>
        <time>2017-05-29T21:44:04.878Z</time>
      </trkpt>
      <trkpt lat="45.105888" lon="5.270878">
        <ele>177.563966</ele>
        <time>2017-05-29T21:44:46.481Z</time>
      </trkpt>
      <trkpt lat="45.105625" lon="5.270572">
        <ele>179.235789</ele>
        <time>2017-05-29T21:45:01.980Z</time>
      </trkpt>
      <trkpt lat="45.105343" lon="5.270420">
        <ele>180.718001</ele>
        <time>2017-05-29T21:45:15.703Z</time>
      </trkpt>
      <trkpt lat="45.104133" lon="5.270336">
        <ele>185.726775</ele>
        <time>2017-05-29T21:46:06.557Z</time>
      </trkpt>
      <trkpt lat="45.103728" lon="5.270079">
        <ele>187.530672</ele>
        <time>2017-05-29T21:46:23.019Z</time>
      </trkpt>
      <trkpt lat="45.103356" lon="5.269934">
        <ele>188.599991</ele>
        <time>2017-05-29T21:46:36.258Z</time>
      </trkpt>
      <trkpt lat="45.102975" lon="5.269578">
        <ele>188.862264</ele>
        <time>2017-05-29T21:46:50.026Z</time>
      </trkpt>
      <trkpt lat="45.102630" lon="5.269461">
        <ele>189.066120</ele>
        <time>2017-05-29T21:46:59.146Z</time>
      </trkpt>
      <trkpt lat="45.102213" lon="5.269526">
        <ele>189.307197</ele>
        <time>2017-05-29T21:47:08.448Z</time>
      </trkpt>
      <trkpt lat="45.101943" lon="5.269473">
        <ele>189.463836</ele>
        <time>2017-05-29T21:47:14.076Z</time>
      </trkpt>
      <trkpt lat="45.101329" lon="5.269749">
        <ele>188.958061</ele>
        <time>2017-05-29T21:47:26.570Z</time>
      </trkpt>
      <trkpt lat="45.100827" lon="5.269644">
        <ele>188.345749</ele>
        <time>2017-05-29T21:47:36.198Z</time>
      </trkpt>
      <trkpt lat="45.100623" lon="5.269697">
        <ele>188.095484</ele>
        <time>2017-05-29T21:47:40.155Z</time>
      </trkpt>
      <trkpt lat="45.100251" lon="5.270066">
        <ele>187.547512</ele>
        <time>2017-05-29T21:47:49.008Z</time>
      </trkpt>
      <trkpt lat="45.100037" lon="5.270131">
        <ele>187.461580</ele>
        <time>2017-05-29T21:47:53.449Z</time>
      </trkpt>
      <trkpt lat="45.099693" lon="5.270118">
        <ele>187.803954</ele>
        <time>2017-05-29T21:48:00.921Z</time>
      </trkpt>
      <trkpt lat="45.098438" lon="5.269789">
        <ele>189.073775</ele>
        <time>2017-05-29T21:48:37.549Z</time>
      </trkpt>
      <trkpt lat="45.098038" lon="5.269473">
        <ele>190.075915</ele>
        <time>2017-05-29T21:48:53.186Z</time>
      </trkpt>
      <trkpt lat="45.097694" lon="5.269473">
        <ele>190.939337</ele>
        <time>2017-05-29T21:49:05.173Z</time>
      </trkpt>
      <trkpt lat="45.097136" lon="5.269262">
        <ele>192.388924</ele>
        <time>2017-05-29T21:49:25.622Z</time>
      </trkpt>
      <trkpt lat="45.094951" lon="5.268617">
        <ele>196.529101</ele>
        <time>2017-05-29T21:50:35.528Z</time>
      </trkpt>
      <trkpt lat="45.094676" lon="5.268568">
        <ele>196.372949</ele>
        <time>2017-05-29T21:50:41.831Z</time>
      </trkpt>
      <trkpt lat="45.094458" lon="5.268530">
        <ele>196.040257</ele>
        <time>2017-05-29T21:50:46.193Z</time>
      </trkpt>
      <trkpt lat="45.093965" lon="5.268577">
        <ele>195.291829</ele>
        <time>2017-05-29T21:50:55.887Z</time>
      </trkpt>
      <trkpt lat="45.093547" lon="5.268735">
        <ele>194.636537</ele>
        <time>2017-05-29T21:51:03.712Z</time>
      </trkpt>
      <trkpt lat="45.093082" lon="5.268986">
        <ele>193.842251</ele>
        <time>2017-05-29T21:51:12.279Z</time>
      </trkpt>
      <trkpt lat="45.092738" lon="5.269051">
        <ele>192.959521</ele>
        <time>2017-05-29T21:51:18.268Z</time>
      </trkpt>
      <trkpt lat="45.090459" lon="5.269196">
        <ele>187.870283</ele>
        <time>2017-05-29T21:51:59.098Z</time>
      </trkpt>
      <trkpt lat="45.089864" lon="5.269381">
        <ele>186.820827</ele>
        <time>2017-05-29T21:52:10.957Z</time>
      </trkpt>
      <trkpt lat="45.089324" lon="5.269354">
        <ele>186.194698</ele>
        <time>2017-05-29T21:52:21.975Z</time>
      </trkpt>
      <trkpt lat="45.088488" lon="5.269473">
        <ele>185.911208</ele>
        <time>2017-05-29T21:52:40.281Z</time>
      </trkpt>
      <trkpt lat="45.088199" lon="5.269473">
        <ele>185.813698</ele>
        <time>2017-05-29T21:52:46.819Z</time>
      </trkpt>
      <trkpt lat="45.087725" lon="5.269289">
        <ele>185.675449</ele>
        <time>2017-05-29T21:52:58.213Z</time>
      </trkpt>
      <trkpt lat="45.086469" lon="5.269091">
        <ele>186.078373</ele>
        <time>2017-05-29T21:53:28.857Z</time>
      </trkpt>
      <trkpt lat="45.084479" lon="5.267905">
        <ele>187.006969</ele>
        <time>2017-05-29T21:54:23.711Z</time>
      </trkpt>
      <trkpt lat="45.083512" lon="5.267444">
        <ele>186.802983</ele>
        <time>2017-05-29T21:54:47.409Z</time>
      </trkpt>
      <trkpt lat="45.083307" lon="5.267405">
        <ele>186.741165</ele>
        <time>2017-05-29T21:54:51.865Z</time>
      </trkpt>
      <trkpt lat="45.082954" lon="5.267458">
        <ele>186.635074</ele>
        <time>2017-05-29T21:54:59.330Z</time>
      </trkpt>
      <trkpt lat="45.082684" lon="5.267418">
        <ele>186.553939</ele>
        <time>2017-05-29T21:55:04.915Z</time>
      </trkpt>
      <trkpt lat="45.082358" lon="5.267273">
        <ele>186.388802</ele>
        <time>2017-05-29T21:55:11.892Z</time>
      </trkpt>
      <trkpt lat="45.081559" lon="5.266522">
        <ele>185.873443</ele>
        <time>2017-05-29T21:55:31.694Z</time>
      </trkpt>
      <trkpt lat="45.080954" lon="5.266048">
        <ele>185.672501</ele>
        <time>2017-05-29T21:55:47.114Z</time>
      </trkpt>
      <trkpt lat="45.080759" lon="5.265745">
        <ele>185.943195</ele>
        <time>2017-05-29T21:55:54.157Z</time>
      </trkpt>
      <trkpt lat="45.080163" lon="5.265324">
        <ele>186.565992</ele>
        <time>2017-05-29T21:56:12.609Z</time>
      </trkpt>
      <trkpt lat="45.079624" lon="5.264770">
        <ele>187.188763</ele>
        <time>2017-05-29T21:56:31.972Z</time>
      </trkpt>
      <trkpt lat="45.079466" lon="5.264415">
        <ele>187.426703</ele>
        <time>2017-05-29T21:56:40.466Z</time>
      </trkpt>
      <trkpt lat="45.079308" lon="5.264217">
        <ele>187.588855</ele>
        <time>2017-05-29T21:56:46.757Z</time>
      </trkpt>
      <trkpt lat="45.079159" lon="5.264125">
        <ele>187.713784</ele>
        <time>2017-05-29T21:56:50.935Z</time>
      </trkpt>
      <trkpt lat="45.078883" lon="5.264025">
        <ele>187.932743</ele>
        <time>2017-05-29T21:56:58.727Z</time>
      </trkpt>
      <trkpt lat="45.078503" lon="5.263724">
        <ele>188.267382</ele>
        <time>2017-05-29T21:57:09.911Z</time>
      </trkpt>
      <trkpt lat="45.078427" lon="5.263643">
        <ele>188.340488</ele>
        <time>2017-05-29T21:57:12.496Z</time>
      </trkpt>
      <trkpt lat="45.077832" lon="5.263304">
        <ele>188.544045</ele>
        <time>2017-05-29T21:57:27.613Z</time>
      </trkpt>
      <trkpt lat="45.076964" lon="5.263011">
        <ele>188.261671</ele>
        <time>2017-05-29T21:57:46.485Z</time>
      </trkpt>
      <trkpt lat="45.076569" lon="5.262934">
        <ele>188.135494</ele>
        <time>2017-05-29T21:57:54.983Z</time>
      </trkpt>
      <trkpt lat="45.076149" lon="5.262590">
        <ele>188.151635</ele>
        <time>2017-05-29T21:58:05.845Z</time>
      </trkpt>
      <trkpt lat="45.075804" lon="5.261825">
        <ele>188.394025</ele>
        <time>2017-05-29T21:58:21.103Z</time>
      </trkpt>
      <trkpt lat="45.074466" lon="5.260282">
        <ele>189.481532</ele>
        <time>2017-05-29T21:59:06.563Z</time>
      </trkpt>
      <trkpt lat="45.073509" lon="5.258931">
        <ele>190.730123</ele>
        <time>2017-05-29T21:59:43.419Z</time>
      </trkpt>
      <trkpt lat="45.072910" lon="5.258204">
        <ele>191.480917</ele>
        <time>2017-05-29T22:00:04.747Z</time>
      </trkpt>
      <trkpt lat="45.072400" lon="5.257860">
        <ele>192.018524</ele>
        <time>2017-05-29T22:00:19.908Z</time>
      </trkpt>
      <trkpt lat="45.071903" lon="5.256929">
        <ele>192.447075</ele>
        <time>2017-05-29T22:00:41.905Z</time>
      </trkpt>
      <trkpt lat="45.071406" lon="5.255055">
        <ele>192.485594</ele>
        <time>2017-05-29T22:01:16.695Z</time>
      </trkpt>
      <trkpt lat="45.070399" lon="5.251498">
        <ele>187.387081</ele>
        <time>2017-05-29T22:02:07.477Z</time>
      </trkpt>
      <trkpt lat="45.070298" lon="5.251106">
        <ele>186.630610</ele>
        <time>2017-05-29T22:02:12.347Z</time>
      </trkpt>
      <trkpt lat="45.070258" lon="5.250950">
        <ele>186.329736</ele>
        <time>2017-05-29T22:02:14.178Z</time>
      </trkpt>
      <trkpt lat="45.069828" lon="5.250344">
        <ele>184.374837</ele>
        <time>2017-05-29T22:02:24.197Z</time>
      </trkpt>
      <trkpt lat="45.069629" lon="5.250082">
        <ele>183.455475</ele>
        <time>2017-05-29T22:02:28.586Z</time>
      </trkpt>
      <trkpt lat="45.069368" lon="5.249615">
        <ele>182.032467</ele>
        <time>2017-05-29T22:02:35.572Z</time>
      </trkpt>
      <trkpt lat="45.068971" lon="5.248591">
        <ele>179.853380</ele>
        <time>2017-05-29T22:02:50.146Z</time>
      </trkpt>
      <trkpt lat="45.068540" lon="5.247325">
        <ele>179.449339</ele>
        <time>2017-05-29T22:03:11.119Z</time>
      </trkpt>
      <trkpt lat="45.068559" lon="5.246666">
        <ele>179.259724</ele>
        <time>2017-05-29T22:03:22.804Z</time>
      </trkpt>
      <trkpt lat="45.068513" lon="5.246196">
        <ele>179.853260</ele>
        <time>2017-05-29T22:03:32.755Z</time>
      </trkpt>
      <trkpt lat="45.068400" lon="5.245775">
        <ele>180.881544</ele>
        <time>2017-05-29T22:03:42.932Z</time>
      </trkpt>
      <trkpt lat="45.068368" lon="5.245280">
        <ele>182.016434</ele>
        <time>2017-05-29T22:03:54.773Z</time>
      </trkpt>
      <trkpt lat="45.068297" lon="5.245074">
        <ele>182.539783</ele>
        <time>2017-05-29T22:03:59.704Z</time>
      </trkpt>
      <trkpt lat="45.068191" lon="5.244809">
        <ele>183.235122</ele>
        <time>2017-05-29T22:04:08.556Z</time>
      </trkpt>
      <trkpt lat="45.068221" lon="5.244613">
        <ele>183.693011</ele>
        <time>2017-05-29T22:04:14.207Z</time>
      </trkpt>
      <trkpt lat="45.068389" lon="5.244364">
        <ele>184.479243</ele>
        <time>2017-05-29T22:04:25.469Z</time>
      </trkpt>
      <trkpt lat="45.068588" lon="5.244154">
        <ele>185.019493</ele>
        <time>2017-05-29T22:04:36.724Z</time>
      </trkpt>
      <trkpt lat="45.068767" lon="5.244033">
        <ele>185.019493</ele>
        <time>2017-05-29T22:04:45.114Z</time>
      </trkpt>
      <trkpt lat="45.069341" lon="5.244116">
        <ele>185.019493</ele>
        <time>2017-05-29T22:05:11.108Z</time>
      </trkpt>
      <trkpt lat="45.069631" lon="5.244087">
        <ele>185.019493</ele>
        <time>2017-05-29T22:05:23.837Z</time>
      </trkpt>
      <trkpt lat="45.069708" lon="5.244023">
        <ele>185.019493</ele>
        <time>2017-05-29T22:05:27.020Z</time>
      </trkpt>
      <trkpt lat="45.069746" lon="5.244066">
        <ele>185.019493</ele>
        <time>2017-05-29T22:05:29.002Z</time>
      </trkpt>
      <trkpt lat="45.069803" lon="5.244048">
        <ele>185.019493</ele>
        <time>2017-05-29T22:05:31.368Z</time>
      </trkpt>
      <trkpt lat="45.069825" lon="5.243990">
        <ele>185.019493</ele>
        <time>2017-05-29T22:05:33.205Z</time>
      </trkpt>
      <trkpt lat="45.069817" lon="5.243936">
        <ele>185.019493</ele>
        <time>2017-05-29T22:05:34.736Z</time>
      </trkpt>
      <trkpt lat="45.070236" lon="5.243323">
        <ele>185.019493</ele>
        <time>2017-05-29T22:05:56.086Z</time>
      </trkpt>
    </trkseg>
  </trk>
</gpx>